<?xml version="1.0" encoding="UTF-8" standalone="no" ?>
<gpx xmlns="http://www.topografix.com/GPX/1/1" xmlns:xsi="http://www.w3.org/2001/XMLSchema-instance" xsi:schemaLocation="http://www.topografix.com/GPX/1/1 http://www.topografix.com/GPX/1/1/gpx.xsd" version="1.1" creator="VisuGPX - https://www.visugpx.com">
  <metadata>
    <name>Aubusson 9km</name>
  </metadata>
  <trk>
    <name><![CDATA[Aubusson 9km_1]]></name>
    <trkseg>
      <trkpt lat="48.77126" lon="-0.58045">
        <ele>223.6</ele>
        <time>2020-05-08T16:27:36Z</time>
      </trkpt>
      <trkpt lat="48.77122" lon="-0.5804">
        <ele>218.4</ele>
        <time>2020-05-08T16:27:45Z</time>
      </trkpt>
      <trkpt lat="48.77118" lon="-0.58037">
        <ele>218.4</ele>
        <time>2020-05-08T16:27:48Z</time>
      </trkpt>
      <trkpt lat="48.77117" lon="-0.58035">
        <ele>218.4</ele>
        <time>2020-05-08T16:27:49Z</time>
      </trkpt>
      <trkpt lat="48.77114" lon="-0.58025">
        <ele>215</ele>
        <time>2020-05-08T16:27:53Z</time>
      </trkpt>
      <trkpt lat="48.77114" lon="-0.58022">
        <ele>212.6</ele>
        <time>2020-05-08T16:27:54Z</time>
      </trkpt>
      <trkpt lat="48.77113" lon="-0.58018">
        <ele>211</ele>
        <time>2020-05-08T16:27:55Z</time>
      </trkpt>
      <trkpt lat="48.77112" lon="-0.58015">
        <ele>209.6</ele>
        <time>2020-05-08T16:27:56Z</time>
      </trkpt>
      <trkpt lat="48.7711" lon="-0.5801">
        <ele>207.6</ele>
        <time>2020-05-08T16:27:58Z</time>
      </trkpt>
      <trkpt lat="48.77108" lon="-0.58007">
        <ele>207</ele>
        <time>2020-05-08T16:27:59Z</time>
      </trkpt>
      <trkpt lat="48.77105" lon="-0.58003">
        <ele>206.6</ele>
        <time>2020-05-08T16:28:00Z</time>
      </trkpt>
      <trkpt lat="48.771" lon="-0.57993">
        <ele>205</ele>
        <time>2020-05-08T16:28:02Z</time>
      </trkpt>
      <trkpt lat="48.77097" lon="-0.57986">
        <ele>204.8</ele>
        <time>2020-05-08T16:28:03Z</time>
      </trkpt>
      <trkpt lat="48.77101" lon="-0.57971">
        <ele>204</ele>
        <time>2020-05-08T16:28:05Z</time>
      </trkpt>
      <trkpt lat="48.77105" lon="-0.57966">
        <ele>203.8</ele>
        <time>2020-05-08T16:28:06Z</time>
      </trkpt>
      <trkpt lat="48.77113" lon="-0.57957">
        <ele>203.6</ele>
        <time>2020-05-08T16:28:08Z</time>
      </trkpt>
      <trkpt lat="48.77116" lon="-0.57951">
        <ele>203.6</ele>
        <time>2020-05-08T16:28:09Z</time>
      </trkpt>
      <trkpt lat="48.77122" lon="-0.57941">
        <ele>203.2</ele>
        <time>2020-05-08T16:28:11Z</time>
      </trkpt>
      <trkpt lat="48.77133" lon="-0.57931">
        <ele>202.8</ele>
        <time>2020-05-08T16:28:14Z</time>
      </trkpt>
      <trkpt lat="48.77137" lon="-0.57928">
        <ele>202.8</ele>
        <time>2020-05-08T16:28:15Z</time>
      </trkpt>
      <trkpt lat="48.77144" lon="-0.57924">
        <ele>202.8</ele>
        <time>2020-05-08T16:28:17Z</time>
      </trkpt>
      <trkpt lat="48.77147" lon="-0.57919">
        <ele>202.6</ele>
        <time>2020-05-08T16:28:18Z</time>
      </trkpt>
      <trkpt lat="48.77147" lon="-0.57905">
        <ele>202.4</ele>
        <time>2020-05-08T16:28:21Z</time>
      </trkpt>
      <trkpt lat="48.77141" lon="-0.57895">
        <ele>202</ele>
        <time>2020-05-08T16:28:24Z</time>
      </trkpt>
      <trkpt lat="48.77139" lon="-0.57892">
        <ele>201.8</ele>
        <time>2020-05-08T16:28:25Z</time>
      </trkpt>
      <trkpt lat="48.77131" lon="-0.57877">
        <ele>201.8</ele>
        <time>2020-05-08T16:28:29Z</time>
      </trkpt>
      <trkpt lat="48.7712" lon="-0.57862">
        <ele>201.8</ele>
        <time>2020-05-08T16:28:34Z</time>
      </trkpt>
      <trkpt lat="48.77106" lon="-0.57844">
        <ele>202</ele>
        <time>2020-05-08T16:28:41Z</time>
      </trkpt>
      <trkpt lat="48.77104" lon="-0.57844">
        <ele>202</ele>
        <time>2020-05-08T16:28:42Z</time>
      </trkpt>
      <trkpt lat="48.77107" lon="-0.57846">
        <ele>202.6</ele>
        <time>2020-05-08T16:29:37Z</time>
      </trkpt>
      <trkpt lat="48.77108" lon="-0.57848">
        <ele>202.8</ele>
        <time>2020-05-08T16:29:38Z</time>
      </trkpt>
      <trkpt lat="48.77116" lon="-0.5786">
        <ele>203.2</ele>
        <time>2020-05-08T16:29:43Z</time>
      </trkpt>
      <trkpt lat="48.7713" lon="-0.5788">
        <ele>203.6</ele>
        <time>2020-05-08T16:29:50Z</time>
      </trkpt>
      <trkpt lat="48.77143" lon="-0.579">
        <ele>202.8</ele>
        <time>2020-05-08T16:29:56Z</time>
      </trkpt>
      <trkpt lat="48.77158" lon="-0.57912">
        <ele>202.4</ele>
        <time>2020-05-08T16:30:01Z</time>
      </trkpt>
      <trkpt lat="48.77172" lon="-0.57904">
        <ele>201.8</ele>
        <time>2020-05-08T16:30:05Z</time>
      </trkpt>
      <trkpt lat="48.77177" lon="-0.57898">
        <ele>201.6</ele>
        <time>2020-05-08T16:30:07Z</time>
      </trkpt>
      <trkpt lat="48.77181" lon="-0.57884">
        <ele>201.6</ele>
        <time>2020-05-08T16:30:10Z</time>
      </trkpt>
      <trkpt lat="48.77179" lon="-0.57855">
        <ele>201.4</ele>
        <time>2020-05-08T16:30:15Z</time>
      </trkpt>
      <trkpt lat="48.77168" lon="-0.57834">
        <ele>202</ele>
        <time>2020-05-08T16:30:20Z</time>
      </trkpt>
      <trkpt lat="48.77153" lon="-0.57814">
        <ele>202.6</ele>
        <time>2020-05-08T16:30:26Z</time>
      </trkpt>
      <trkpt lat="48.77144" lon="-0.578">
        <ele>202.8</ele>
        <time>2020-05-08T16:30:30Z</time>
      </trkpt>
      <trkpt lat="48.77135" lon="-0.57786">
        <ele>202.8</ele>
        <time>2020-05-08T16:30:34Z</time>
      </trkpt>
      <trkpt lat="48.77126" lon="-0.57765">
        <ele>202.6</ele>
        <time>2020-05-08T16:30:41Z</time>
      </trkpt>
      <trkpt lat="48.7713" lon="-0.57752">
        <ele>202.6</ele>
        <time>2020-05-08T16:30:45Z</time>
      </trkpt>
      <trkpt lat="48.77132" lon="-0.57749">
        <ele>202.4</ele>
        <time>2020-05-08T16:30:46Z</time>
      </trkpt>
      <trkpt lat="48.77143" lon="-0.57725">
        <ele>201.6</ele>
        <time>2020-05-08T16:30:50Z</time>
      </trkpt>
      <trkpt lat="48.77148" lon="-0.57715">
        <ele>201.2</ele>
        <time>2020-05-08T16:30:52Z</time>
      </trkpt>
      <trkpt lat="48.7715" lon="-0.57714">
        <ele>201.2</ele>
        <time>2020-05-08T16:30:53Z</time>
      </trkpt>
      <trkpt lat="48.77152" lon="-0.57715">
        <ele>201</ele>
        <time>2020-05-08T16:30:54Z</time>
      </trkpt>
      <trkpt lat="48.77155" lon="-0.57724">
        <ele>200.6</ele>
        <time>2020-05-08T16:30:57Z</time>
      </trkpt>
      <trkpt lat="48.77156" lon="-0.57728">
        <ele>200.4</ele>
        <time>2020-05-08T16:30:58Z</time>
      </trkpt>
      <trkpt lat="48.77164" lon="-0.57735">
        <ele>199.6</ele>
        <time>2020-05-08T16:31:02Z</time>
      </trkpt>
      <trkpt lat="48.77166" lon="-0.57736">
        <ele>199.4</ele>
        <time>2020-05-08T16:31:03Z</time>
      </trkpt>
      <trkpt lat="48.7718" lon="-0.57737">
        <ele>198.4</ele>
        <time>2020-05-08T16:31:09Z</time>
      </trkpt>
      <trkpt lat="48.77193" lon="-0.57744">
        <ele>197.4</ele>
        <time>2020-05-08T16:31:14Z</time>
      </trkpt>
      <trkpt lat="48.77199" lon="-0.57748">
        <ele>196.8</ele>
        <time>2020-05-08T16:31:16Z</time>
      </trkpt>
      <trkpt lat="48.77205" lon="-0.57751">
        <ele>196.2</ele>
        <time>2020-05-08T16:31:18Z</time>
      </trkpt>
      <trkpt lat="48.7721" lon="-0.57753">
        <ele>195.6</ele>
        <time>2020-05-08T16:31:21Z</time>
      </trkpt>
      <trkpt lat="48.77212" lon="-0.57755">
        <ele>195.4</ele>
        <time>2020-05-08T16:31:22Z</time>
      </trkpt>
      <trkpt lat="48.77225" lon="-0.57762">
        <ele>195.2</ele>
        <time>2020-05-08T16:31:27Z</time>
      </trkpt>
      <trkpt lat="48.77245" lon="-0.57765">
        <ele>195</ele>
        <time>2020-05-08T16:31:34Z</time>
      </trkpt>
      <trkpt lat="48.7726" lon="-0.5776">
        <ele>195</ele>
        <time>2020-05-08T16:31:40Z</time>
      </trkpt>
      <trkpt lat="48.77269" lon="-0.57756">
        <ele>195.4</ele>
        <time>2020-05-08T16:31:44Z</time>
      </trkpt>
      <trkpt lat="48.7727" lon="-0.5775">
        <ele>195.8</ele>
        <time>2020-05-08T16:31:46Z</time>
      </trkpt>
      <trkpt lat="48.7727" lon="-0.57743">
        <ele>196.2</ele>
        <time>2020-05-08T16:31:48Z</time>
      </trkpt>
      <trkpt lat="48.77269" lon="-0.5774">
        <ele>196.4</ele>
        <time>2020-05-08T16:31:49Z</time>
      </trkpt>
      <trkpt lat="48.77269" lon="-0.57731">
        <ele>196.8</ele>
        <time>2020-05-08T16:31:52Z</time>
      </trkpt>
      <trkpt lat="48.77268" lon="-0.57715">
        <ele>197.6</ele>
        <time>2020-05-08T16:31:58Z</time>
      </trkpt>
      <trkpt lat="48.77267" lon="-0.5771">
        <ele>198</ele>
        <time>2020-05-08T16:32:00Z</time>
      </trkpt>
      <trkpt lat="48.77266" lon="-0.57694">
        <ele>198.6</ele>
        <time>2020-05-08T16:32:06Z</time>
      </trkpt>
      <trkpt lat="48.77265" lon="-0.57679">
        <ele>199.8</ele>
        <time>2020-05-08T16:32:11Z</time>
      </trkpt>
      <trkpt lat="48.77264" lon="-0.5767">
        <ele>200.6</ele>
        <time>2020-05-08T16:32:14Z</time>
      </trkpt>
      <trkpt lat="48.77263" lon="-0.57667">
        <ele>200.8</ele>
        <time>2020-05-08T16:32:15Z</time>
      </trkpt>
      <trkpt lat="48.77262" lon="-0.57654">
        <ele>202</ele>
        <time>2020-05-08T16:32:19Z</time>
      </trkpt>
      <trkpt lat="48.77261" lon="-0.57648">
        <ele>202.2</ele>
        <time>2020-05-08T16:32:21Z</time>
      </trkpt>
      <trkpt lat="48.77262" lon="-0.57638">
        <ele>203.2</ele>
        <time>2020-05-08T16:32:24Z</time>
      </trkpt>
      <trkpt lat="48.77262" lon="-0.57626">
        <ele>204</ele>
        <time>2020-05-08T16:32:28Z</time>
      </trkpt>
      <trkpt lat="48.77261" lon="-0.5762">
        <ele>204.2</ele>
        <time>2020-05-08T16:32:30Z</time>
      </trkpt>
      <trkpt lat="48.77258" lon="-0.57602">
        <ele>205.2</ele>
        <time>2020-05-08T16:32:36Z</time>
      </trkpt>
      <trkpt lat="48.77258" lon="-0.57599">
        <ele>205.4</ele>
        <time>2020-05-08T16:32:37Z</time>
      </trkpt>
      <trkpt lat="48.77253" lon="-0.57581">
        <ele>206.4</ele>
        <time>2020-05-08T16:32:43Z</time>
      </trkpt>
      <trkpt lat="48.77251" lon="-0.57568">
        <ele>207.6</ele>
        <time>2020-05-08T16:32:47Z</time>
      </trkpt>
      <trkpt lat="48.7725" lon="-0.57563">
        <ele>208</ele>
        <time>2020-05-08T16:32:49Z</time>
      </trkpt>
      <trkpt lat="48.77247" lon="-0.57553">
        <ele>208.6</ele>
        <time>2020-05-08T16:32:52Z</time>
      </trkpt>
      <trkpt lat="48.77242" lon="-0.57542">
        <ele>209.4</ele>
        <time>2020-05-08T16:32:56Z</time>
      </trkpt>
      <trkpt lat="48.7724" lon="-0.57536">
        <ele>209.8</ele>
        <time>2020-05-08T16:32:58Z</time>
      </trkpt>
      <trkpt lat="48.77237" lon="-0.57521">
        <ele>210.2</ele>
        <time>2020-05-08T16:33:03Z</time>
      </trkpt>
      <trkpt lat="48.77233" lon="-0.57513">
        <ele>210.8</ele>
        <time>2020-05-08T16:33:06Z</time>
      </trkpt>
      <trkpt lat="48.77228" lon="-0.57499">
        <ele>211.6</ele>
        <time>2020-05-08T16:33:10Z</time>
      </trkpt>
      <trkpt lat="48.77227" lon="-0.57494">
        <ele>212</ele>
        <time>2020-05-08T16:33:11Z</time>
      </trkpt>
      <trkpt lat="48.77222" lon="-0.57479">
        <ele>213</ele>
        <time>2020-05-08T16:33:15Z</time>
      </trkpt>
      <trkpt lat="48.77216" lon="-0.57457">
        <ele>214</ele>
        <time>2020-05-08T16:33:22Z</time>
      </trkpt>
      <trkpt lat="48.77212" lon="-0.5744">
        <ele>215.2</ele>
        <time>2020-05-08T16:33:27Z</time>
      </trkpt>
      <trkpt lat="48.77208" lon="-0.57425">
        <ele>216</ele>
        <time>2020-05-08T16:33:32Z</time>
      </trkpt>
      <trkpt lat="48.77207" lon="-0.57422">
        <ele>216.2</ele>
        <time>2020-05-08T16:33:33Z</time>
      </trkpt>
      <trkpt lat="48.77199" lon="-0.57393">
        <ele>217</ele>
        <time>2020-05-08T16:33:41Z</time>
      </trkpt>
      <trkpt lat="48.77197" lon="-0.57385">
        <ele>217.2</ele>
        <time>2020-05-08T16:33:43Z</time>
      </trkpt>
      <trkpt lat="48.77191" lon="-0.57363">
        <ele>217.6</ele>
        <time>2020-05-08T16:33:49Z</time>
      </trkpt>
      <trkpt lat="48.77184" lon="-0.5734">
        <ele>217.6</ele>
        <time>2020-05-08T16:33:55Z</time>
      </trkpt>
      <trkpt lat="48.77183" lon="-0.57309">
        <ele>217.8</ele>
        <time>2020-05-08T16:34:03Z</time>
      </trkpt>
      <trkpt lat="48.77185" lon="-0.57286">
        <ele>217.4</ele>
        <time>2020-05-08T16:34:09Z</time>
      </trkpt>
      <trkpt lat="48.77186" lon="-0.57259">
        <ele>217.2</ele>
        <time>2020-05-08T16:34:16Z</time>
      </trkpt>
      <trkpt lat="48.77189" lon="-0.57235">
        <ele>217.2</ele>
        <time>2020-05-08T16:34:23Z</time>
      </trkpt>
      <trkpt lat="48.77191" lon="-0.57207">
        <ele>216.2</ele>
        <time>2020-05-08T16:34:30Z</time>
      </trkpt>
      <trkpt lat="48.77193" lon="-0.57195">
        <ele>216</ele>
        <time>2020-05-08T16:34:33Z</time>
      </trkpt>
      <trkpt lat="48.77196" lon="-0.57156">
        <ele>215.6</ele>
        <time>2020-05-08T16:34:42Z</time>
      </trkpt>
      <trkpt lat="48.77195" lon="-0.57131">
        <ele>215.6</ele>
        <time>2020-05-08T16:34:48Z</time>
      </trkpt>
      <trkpt lat="48.77191" lon="-0.57126">
        <ele>215.4</ele>
        <time>2020-05-08T16:34:50Z</time>
      </trkpt>
      <trkpt lat="48.77184" lon="-0.57121">
        <ele>215.2</ele>
        <time>2020-05-08T16:34:52Z</time>
      </trkpt>
      <trkpt lat="48.77181" lon="-0.57119">
        <ele>215.2</ele>
        <time>2020-05-08T16:34:53Z</time>
      </trkpt>
      <trkpt lat="48.77169" lon="-0.5711">
        <ele>214.6</ele>
        <time>2020-05-08T16:34:57Z</time>
      </trkpt>
      <trkpt lat="48.77149" lon="-0.57097">
        <ele>214</ele>
        <time>2020-05-08T16:35:03Z</time>
      </trkpt>
      <trkpt lat="48.77143" lon="-0.57092">
        <ele>214.2</ele>
        <time>2020-05-08T16:35:05Z</time>
      </trkpt>
      <trkpt lat="48.77127" lon="-0.57071">
        <ele>213.4</ele>
        <time>2020-05-08T16:35:11Z</time>
      </trkpt>
      <trkpt lat="48.77113" lon="-0.57058">
        <ele>213.2</ele>
        <time>2020-05-08T16:35:16Z</time>
      </trkpt>
      <trkpt lat="48.77101" lon="-0.57049">
        <ele>212.8</ele>
        <time>2020-05-08T16:35:20Z</time>
      </trkpt>
      <trkpt lat="48.77095" lon="-0.57045">
        <ele>213.2</ele>
        <time>2020-05-08T16:35:22Z</time>
      </trkpt>
      <trkpt lat="48.77079" lon="-0.57035">
        <ele>214</ele>
        <time>2020-05-08T16:35:27Z</time>
      </trkpt>
      <trkpt lat="48.77071" lon="-0.57031">
        <ele>213.8</ele>
        <time>2020-05-08T16:35:30Z</time>
      </trkpt>
      <trkpt lat="48.77064" lon="-0.57019">
        <ele>214.2</ele>
        <time>2020-05-08T16:35:35Z</time>
      </trkpt>
      <trkpt lat="48.77064" lon="-0.57015">
        <ele>214.2</ele>
        <time>2020-05-08T16:35:36Z</time>
      </trkpt>
      <trkpt lat="48.77065" lon="-0.57004">
        <ele>214.4</ele>
        <time>2020-05-08T16:35:39Z</time>
      </trkpt>
      <trkpt lat="48.77069" lon="-0.56975">
        <ele>214.8</ele>
        <time>2020-05-08T16:35:47Z</time>
      </trkpt>
      <trkpt lat="48.77072" lon="-0.56956">
        <ele>215</ele>
        <time>2020-05-08T16:35:52Z</time>
      </trkpt>
      <trkpt lat="48.77076" lon="-0.56945">
        <ele>214.8</ele>
        <time>2020-05-08T16:35:55Z</time>
      </trkpt>
      <trkpt lat="48.77083" lon="-0.56919">
        <ele>215</ele>
        <time>2020-05-08T16:36:02Z</time>
      </trkpt>
      <trkpt lat="48.77088" lon="-0.56898">
        <ele>215.8</ele>
        <time>2020-05-08T16:36:09Z</time>
      </trkpt>
      <trkpt lat="48.77091" lon="-0.56884">
        <ele>215.8</ele>
        <time>2020-05-08T16:36:16Z</time>
      </trkpt>
      <trkpt lat="48.77092" lon="-0.56871">
        <ele>216</ele>
        <time>2020-05-08T16:36:20Z</time>
      </trkpt>
      <trkpt lat="48.77092" lon="-0.56868">
        <ele>216</ele>
        <time>2020-05-08T16:36:21Z</time>
      </trkpt>
      <trkpt lat="48.77095" lon="-0.56838">
        <ele>216.6</ele>
        <time>2020-05-08T16:36:29Z</time>
      </trkpt>
      <trkpt lat="48.77098" lon="-0.56817">
        <ele>217</ele>
        <time>2020-05-08T16:36:34Z</time>
      </trkpt>
      <trkpt lat="48.77098" lon="-0.56808">
        <ele>217</ele>
        <time>2020-05-08T16:36:36Z</time>
      </trkpt>
      <trkpt lat="48.77096" lon="-0.56782">
        <ele>216.8</ele>
        <time>2020-05-08T16:36:42Z</time>
      </trkpt>
      <trkpt lat="48.77095" lon="-0.56754">
        <ele>217.2</ele>
        <time>2020-05-08T16:36:47Z</time>
      </trkpt>
      <trkpt lat="48.771" lon="-0.56718">
        <ele>218.2</ele>
        <time>2020-05-08T16:36:53Z</time>
      </trkpt>
      <trkpt lat="48.771" lon="-0.56712">
        <ele>218.4</ele>
        <time>2020-05-08T16:36:54Z</time>
      </trkpt>
      <trkpt lat="48.77105" lon="-0.56672">
        <ele>219.2</ele>
        <time>2020-05-08T16:37:01Z</time>
      </trkpt>
      <trkpt lat="48.77107" lon="-0.56667">
        <ele>219.6</ele>
        <time>2020-05-08T16:37:02Z</time>
      </trkpt>
      <trkpt lat="48.77111" lon="-0.56651">
        <ele>220.6</ele>
        <time>2020-05-08T16:37:05Z</time>
      </trkpt>
      <trkpt lat="48.77114" lon="-0.56632">
        <ele>221.4</ele>
        <time>2020-05-08T16:37:09Z</time>
      </trkpt>
      <trkpt lat="48.77114" lon="-0.56627">
        <ele>221.8</ele>
        <time>2020-05-08T16:37:10Z</time>
      </trkpt>
      <trkpt lat="48.77116" lon="-0.56611">
        <ele>222.6</ele>
        <time>2020-05-08T16:37:15Z</time>
      </trkpt>
      <trkpt lat="48.77116" lon="-0.56608">
        <ele>222.8</ele>
        <time>2020-05-08T16:37:16Z</time>
      </trkpt>
      <trkpt lat="48.77117" lon="-0.56588">
        <ele>223.6</ele>
        <time>2020-05-08T16:37:22Z</time>
      </trkpt>
      <trkpt lat="48.77117" lon="-0.56584">
        <ele>223.8</ele>
        <time>2020-05-08T16:37:23Z</time>
      </trkpt>
      <trkpt lat="48.77117" lon="-0.56572">
        <ele>224.6</ele>
        <time>2020-05-08T16:37:27Z</time>
      </trkpt>
      <trkpt lat="48.77117" lon="-0.56564">
        <ele>224.8</ele>
        <time>2020-05-08T16:37:29Z</time>
      </trkpt>
      <trkpt lat="48.77116" lon="-0.56551">
        <ele>226</ele>
        <time>2020-05-08T16:37:33Z</time>
      </trkpt>
      <trkpt lat="48.77115" lon="-0.56546">
        <ele>226.6</ele>
        <time>2020-05-08T16:37:34Z</time>
      </trkpt>
      <trkpt lat="48.77114" lon="-0.56538">
        <ele>227.4</ele>
        <time>2020-05-08T16:37:36Z</time>
      </trkpt>
      <trkpt lat="48.77114" lon="-0.56528">
        <ele>228.4</ele>
        <time>2020-05-08T16:37:39Z</time>
      </trkpt>
      <trkpt lat="48.77114" lon="-0.56517">
        <ele>229</ele>
        <time>2020-05-08T16:37:43Z</time>
      </trkpt>
      <trkpt lat="48.77114" lon="-0.56501">
        <ele>228.8</ele>
        <time>2020-05-08T16:37:49Z</time>
      </trkpt>
      <trkpt lat="48.77115" lon="-0.56482">
        <ele>229.6</ele>
        <time>2020-05-08T16:37:56Z</time>
      </trkpt>
      <trkpt lat="48.77116" lon="-0.56479">
        <ele>229.8</ele>
        <time>2020-05-08T16:37:57Z</time>
      </trkpt>
      <trkpt lat="48.77116" lon="-0.56465">
        <ele>230</ele>
        <time>2020-05-08T16:38:02Z</time>
      </trkpt>
      <trkpt lat="48.77116" lon="-0.56459">
        <ele>230.4</ele>
        <time>2020-05-08T16:38:04Z</time>
      </trkpt>
      <trkpt lat="48.77116" lon="-0.56451">
        <ele>230.6</ele>
        <time>2020-05-08T16:38:07Z</time>
      </trkpt>
      <trkpt lat="48.77115" lon="-0.56443">
        <ele>231</ele>
        <time>2020-05-08T16:38:11Z</time>
      </trkpt>
      <trkpt lat="48.77116" lon="-0.56419">
        <ele>230.4</ele>
        <time>2020-05-08T16:38:20Z</time>
      </trkpt>
      <trkpt lat="48.77116" lon="-0.56409">
        <ele>230.4</ele>
        <time>2020-05-08T16:39:09Z</time>
      </trkpt>
      <trkpt lat="48.77115" lon="-0.56406">
        <ele>230.4</ele>
        <time>2020-05-08T16:39:10Z</time>
      </trkpt>
      <trkpt lat="48.77114" lon="-0.56384">
        <ele>230.6</ele>
        <time>2020-05-08T16:39:15Z</time>
      </trkpt>
      <trkpt lat="48.77111" lon="-0.56344">
        <ele>229.6</ele>
        <time>2020-05-08T16:39:22Z</time>
      </trkpt>
      <trkpt lat="48.77111" lon="-0.56338">
        <ele>229.4</ele>
        <time>2020-05-08T16:39:23Z</time>
      </trkpt>
      <trkpt lat="48.7711" lon="-0.56298">
        <ele>229</ele>
        <time>2020-05-08T16:39:30Z</time>
      </trkpt>
      <trkpt lat="48.77109" lon="-0.56281">
        <ele>228.6</ele>
        <time>2020-05-08T16:39:32Z</time>
      </trkpt>
      <trkpt lat="48.77108" lon="-0.56249">
        <ele>227.2</ele>
        <time>2020-05-08T16:39:36Z</time>
      </trkpt>
      <trkpt lat="48.77108" lon="-0.5624">
        <ele>227</ele>
        <time>2020-05-08T16:39:37Z</time>
      </trkpt>
      <trkpt lat="48.77108" lon="-0.56212">
        <ele>226.2</ele>
        <time>2020-05-08T16:39:40Z</time>
      </trkpt>
      <trkpt lat="48.77109" lon="-0.56181">
        <ele>225.4</ele>
        <time>2020-05-08T16:39:43Z</time>
      </trkpt>
      <trkpt lat="48.77111" lon="-0.56171">
        <ele>225</ele>
        <time>2020-05-08T16:39:44Z</time>
      </trkpt>
      <trkpt lat="48.77113" lon="-0.56162">
        <ele>224.4</ele>
        <time>2020-05-08T16:39:45Z</time>
      </trkpt>
      <trkpt lat="48.77119" lon="-0.56145">
        <ele>223.6</ele>
        <time>2020-05-08T16:39:47Z</time>
      </trkpt>
      <trkpt lat="48.77125" lon="-0.56128">
        <ele>222.8</ele>
        <time>2020-05-08T16:39:49Z</time>
      </trkpt>
      <trkpt lat="48.77129" lon="-0.5612">
        <ele>222.2</ele>
        <time>2020-05-08T16:39:50Z</time>
      </trkpt>
      <trkpt lat="48.77138" lon="-0.56103">
        <ele>221.4</ele>
        <time>2020-05-08T16:39:52Z</time>
      </trkpt>
      <trkpt lat="48.77142" lon="-0.56095">
        <ele>220.8</ele>
        <time>2020-05-08T16:39:53Z</time>
      </trkpt>
      <trkpt lat="48.77155" lon="-0.56072">
        <ele>219.8</ele>
        <time>2020-05-08T16:39:56Z</time>
      </trkpt>
      <trkpt lat="48.77158" lon="-0.56064">
        <ele>219.8</ele>
        <time>2020-05-08T16:39:57Z</time>
      </trkpt>
      <trkpt lat="48.77161" lon="-0.56027">
        <ele>219.8</ele>
        <time>2020-05-08T16:40:01Z</time>
      </trkpt>
      <trkpt lat="48.7716" lon="-0.56012">
        <ele>219.6</ele>
        <time>2020-05-08T16:40:03Z</time>
      </trkpt>
      <trkpt lat="48.7716" lon="-0.56">
        <ele>219.6</ele>
        <time>2020-05-08T16:40:05Z</time>
      </trkpt>
      <trkpt lat="48.77159" lon="-0.55967">
        <ele>219.8</ele>
        <time>2020-05-08T16:40:11Z</time>
      </trkpt>
      <trkpt lat="48.77155" lon="-0.5593">
        <ele>219.6</ele>
        <time>2020-05-08T16:40:18Z</time>
      </trkpt>
      <trkpt lat="48.77145" lon="-0.55914">
        <ele>220</ele>
        <time>2020-05-08T16:40:24Z</time>
      </trkpt>
      <trkpt lat="48.77129" lon="-0.55901">
        <ele>220.6</ele>
        <time>2020-05-08T16:40:33Z</time>
      </trkpt>
      <trkpt lat="48.77125" lon="-0.55898">
        <ele>220.8</ele>
        <time>2020-05-08T16:40:35Z</time>
      </trkpt>
      <trkpt lat="48.77114" lon="-0.55886">
        <ele>222</ele>
        <time>2020-05-08T16:40:41Z</time>
      </trkpt>
      <trkpt lat="48.77102" lon="-0.55875">
        <ele>223</ele>
        <time>2020-05-08T16:40:46Z</time>
      </trkpt>
      <trkpt lat="48.77097" lon="-0.5587">
        <ele>223.4</ele>
        <time>2020-05-08T16:40:48Z</time>
      </trkpt>
      <trkpt lat="48.7709" lon="-0.55863">
        <ele>224.2</ele>
        <time>2020-05-08T16:40:51Z</time>
      </trkpt>
      <trkpt lat="48.77077" lon="-0.55852">
        <ele>225</ele>
        <time>2020-05-08T16:40:56Z</time>
      </trkpt>
      <trkpt lat="48.77075" lon="-0.55849">
        <ele>225.2</ele>
        <time>2020-05-08T16:40:57Z</time>
      </trkpt>
      <trkpt lat="48.77054" lon="-0.55832">
        <ele>225.6</ele>
        <time>2020-05-08T16:41:04Z</time>
      </trkpt>
      <trkpt lat="48.7702" lon="-0.55816">
        <ele>226.2</ele>
        <time>2020-05-08T16:41:14Z</time>
      </trkpt>
      <trkpt lat="48.76997" lon="-0.55804">
        <ele>226.8</ele>
        <time>2020-05-08T16:41:20Z</time>
      </trkpt>
      <trkpt lat="48.76987" lon="-0.558">
        <ele>227.4</ele>
        <time>2020-05-08T16:41:23Z</time>
      </trkpt>
      <trkpt lat="48.76975" lon="-0.55795">
        <ele>228</ele>
        <time>2020-05-08T16:41:27Z</time>
      </trkpt>
      <trkpt lat="48.76953" lon="-0.55794">
        <ele>228</ele>
        <time>2020-05-08T16:41:34Z</time>
      </trkpt>
      <trkpt lat="48.76948" lon="-0.5579">
        <ele>228.2</ele>
        <time>2020-05-08T16:41:36Z</time>
      </trkpt>
      <trkpt lat="48.76947" lon="-0.55783">
        <ele>228.2</ele>
        <time>2020-05-08T16:41:38Z</time>
      </trkpt>
      <trkpt lat="48.76953" lon="-0.55772">
        <ele>227.6</ele>
        <time>2020-05-08T16:41:42Z</time>
      </trkpt>
      <trkpt lat="48.76956" lon="-0.5577">
        <ele>227.4</ele>
        <time>2020-05-08T16:41:43Z</time>
      </trkpt>
      <trkpt lat="48.76966" lon="-0.55749">
        <ele>227.4</ele>
        <time>2020-05-08T16:41:48Z</time>
      </trkpt>
      <trkpt lat="48.76985" lon="-0.5571">
        <ele>226.8</ele>
        <time>2020-05-08T16:41:56Z</time>
      </trkpt>
      <trkpt lat="48.76993" lon="-0.55691">
        <ele>226.2</ele>
        <time>2020-05-08T16:41:59Z</time>
      </trkpt>
      <trkpt lat="48.77002" lon="-0.55669">
        <ele>225.8</ele>
        <time>2020-05-08T16:42:02Z</time>
      </trkpt>
      <trkpt lat="48.77009" lon="-0.55652">
        <ele>225.2</ele>
        <time>2020-05-08T16:42:04Z</time>
      </trkpt>
      <trkpt lat="48.77025" lon="-0.55616">
        <ele>224</ele>
        <time>2020-05-08T16:42:08Z</time>
      </trkpt>
      <trkpt lat="48.77039" lon="-0.55579">
        <ele>222.8</ele>
        <time>2020-05-08T16:42:12Z</time>
      </trkpt>
      <trkpt lat="48.7705" lon="-0.55549">
        <ele>221.6</ele>
        <time>2020-05-08T16:42:16Z</time>
      </trkpt>
      <trkpt lat="48.77053" lon="-0.55546">
        <ele>221.6</ele>
        <time>2020-05-08T16:42:17Z</time>
      </trkpt>
      <trkpt lat="48.77059" lon="-0.55549">
        <ele>221.6</ele>
        <time>2020-05-08T16:42:19Z</time>
      </trkpt>
      <trkpt lat="48.77067" lon="-0.55567">
        <ele>221.6</ele>
        <time>2020-05-08T16:42:22Z</time>
      </trkpt>
      <trkpt lat="48.77072" lon="-0.55582">
        <ele>221.4</ele>
        <time>2020-05-08T16:42:24Z</time>
      </trkpt>
      <trkpt lat="48.77082" lon="-0.55605">
        <ele>221.4</ele>
        <time>2020-05-08T16:42:27Z</time>
      </trkpt>
      <trkpt lat="48.77091" lon="-0.55619">
        <ele>221.2</ele>
        <time>2020-05-08T16:42:29Z</time>
      </trkpt>
      <trkpt lat="48.77104" lon="-0.55637">
        <ele>221.2</ele>
        <time>2020-05-08T16:42:32Z</time>
      </trkpt>
      <trkpt lat="48.77135" lon="-0.55673">
        <ele>220.6</ele>
        <time>2020-05-08T16:42:39Z</time>
      </trkpt>
      <trkpt lat="48.7715" lon="-0.55699">
        <ele>220</ele>
        <time>2020-05-08T16:42:43Z</time>
      </trkpt>
      <trkpt lat="48.77152" lon="-0.55707">
        <ele>220</ele>
        <time>2020-05-08T16:42:44Z</time>
      </trkpt>
      <trkpt lat="48.7716" lon="-0.55722">
        <ele>219.6</ele>
        <time>2020-05-08T16:42:47Z</time>
      </trkpt>
      <trkpt lat="48.77169" lon="-0.55724">
        <ele>219.6</ele>
        <time>2020-05-08T16:42:49Z</time>
      </trkpt>
      <trkpt lat="48.77177" lon="-0.55722">
        <ele>219.4</ele>
        <time>2020-05-08T16:42:51Z</time>
      </trkpt>
      <trkpt lat="48.77183" lon="-0.55721">
        <ele>219.4</ele>
        <time>2020-05-08T16:42:53Z</time>
      </trkpt>
      <trkpt lat="48.77191" lon="-0.55721">
        <ele>219.4</ele>
        <time>2020-05-08T16:42:56Z</time>
      </trkpt>
      <trkpt lat="48.77212" lon="-0.55718">
        <ele>220</ele>
        <time>2020-05-08T16:43:05Z</time>
      </trkpt>
      <trkpt lat="48.77219" lon="-0.55719">
        <ele>220.6</ele>
        <time>2020-05-08T16:43:08Z</time>
      </trkpt>
      <trkpt lat="48.77227" lon="-0.55717">
        <ele>221.8</ele>
        <time>2020-05-08T16:43:12Z</time>
      </trkpt>
      <trkpt lat="48.77233" lon="-0.55719">
        <ele>222.8</ele>
        <time>2020-05-08T16:43:16Z</time>
      </trkpt>
      <trkpt lat="48.77238" lon="-0.55721">
        <ele>223.8</ele>
        <time>2020-05-08T16:43:19Z</time>
      </trkpt>
      <trkpt lat="48.77242" lon="-0.55721">
        <ele>224.4</ele>
        <time>2020-05-08T16:43:21Z</time>
      </trkpt>
      <trkpt lat="48.77248" lon="-0.5572">
        <ele>225.4</ele>
        <time>2020-05-08T16:43:24Z</time>
      </trkpt>
      <trkpt lat="48.77256" lon="-0.55722">
        <ele>226.2</ele>
        <time>2020-05-08T16:43:28Z</time>
      </trkpt>
      <trkpt lat="48.77258" lon="-0.55723">
        <ele>226.4</ele>
        <time>2020-05-08T16:43:29Z</time>
      </trkpt>
      <trkpt lat="48.77266" lon="-0.55722">
        <ele>227.4</ele>
        <time>2020-05-08T16:43:33Z</time>
      </trkpt>
      <trkpt lat="48.7727" lon="-0.55723">
        <ele>227.8</ele>
        <time>2020-05-08T16:43:35Z</time>
      </trkpt>
      <trkpt lat="48.77278" lon="-0.55724">
        <ele>228.6</ele>
        <time>2020-05-08T16:43:39Z</time>
      </trkpt>
      <trkpt lat="48.77286" lon="-0.55726">
        <ele>229.4</ele>
        <time>2020-05-08T16:43:43Z</time>
      </trkpt>
      <trkpt lat="48.77288" lon="-0.55727">
        <ele>229.6</ele>
        <time>2020-05-08T16:43:44Z</time>
      </trkpt>
      <trkpt lat="48.77301" lon="-0.55726">
        <ele>230.2</ele>
        <time>2020-05-08T16:43:50Z</time>
      </trkpt>
      <trkpt lat="48.77312" lon="-0.55729">
        <ele>230.6</ele>
        <time>2020-05-08T16:43:56Z</time>
      </trkpt>
      <trkpt lat="48.77314" lon="-0.55729">
        <ele>230.8</ele>
        <time>2020-05-08T16:43:57Z</time>
      </trkpt>
      <trkpt lat="48.77327" lon="-0.5573">
        <ele>231</ele>
        <time>2020-05-08T16:44:04Z</time>
      </trkpt>
      <trkpt lat="48.77341" lon="-0.55729">
        <ele>230.6</ele>
        <time>2020-05-08T16:44:11Z</time>
      </trkpt>
      <trkpt lat="48.77353" lon="-0.55726">
        <ele>230</ele>
        <time>2020-05-08T16:44:18Z</time>
      </trkpt>
      <trkpt lat="48.77358" lon="-0.55722">
        <ele>229.4</ele>
        <time>2020-05-08T16:44:21Z</time>
      </trkpt>
      <trkpt lat="48.77363" lon="-0.55722">
        <ele>228.6</ele>
        <time>2020-05-08T16:44:26Z</time>
      </trkpt>
      <trkpt lat="48.77371" lon="-0.55721">
        <ele>228.6</ele>
        <time>2020-05-08T16:44:31Z</time>
      </trkpt>
      <trkpt lat="48.77382" lon="-0.55724">
        <ele>228.6</ele>
        <time>2020-05-08T16:44:35Z</time>
      </trkpt>
      <trkpt lat="48.77411" lon="-0.55729">
        <ele>228.6</ele>
        <time>2020-05-08T16:44:43Z</time>
      </trkpt>
      <trkpt lat="48.77418" lon="-0.5573">
        <ele>228.4</ele>
        <time>2020-05-08T16:44:45Z</time>
      </trkpt>
      <trkpt lat="48.77436" lon="-0.55733">
        <ele>228.2</ele>
        <time>2020-05-08T16:44:49Z</time>
      </trkpt>
      <trkpt lat="48.77441" lon="-0.55734">
        <ele>228.2</ele>
        <time>2020-05-08T16:44:50Z</time>
      </trkpt>
      <trkpt lat="48.77466" lon="-0.55744">
        <ele>228</ele>
        <time>2020-05-08T16:44:55Z</time>
      </trkpt>
      <trkpt lat="48.77499" lon="-0.55752">
        <ele>228</ele>
        <time>2020-05-08T16:45:02Z</time>
      </trkpt>
      <trkpt lat="48.77522" lon="-0.55761">
        <ele>228</ele>
        <time>2020-05-08T16:45:08Z</time>
      </trkpt>
      <trkpt lat="48.77552" lon="-0.55773">
        <ele>228.4</ele>
        <time>2020-05-08T16:45:14Z</time>
      </trkpt>
      <trkpt lat="48.7759" lon="-0.55789">
        <ele>229.2</ele>
        <time>2020-05-08T16:45:21Z</time>
      </trkpt>
      <trkpt lat="48.77613" lon="-0.55798">
        <ele>229.4</ele>
        <time>2020-05-08T16:45:27Z</time>
      </trkpt>
      <trkpt lat="48.77617" lon="-0.55802">
        <ele>229.8</ele>
        <time>2020-05-08T16:45:28Z</time>
      </trkpt>
      <trkpt lat="48.7764" lon="-0.55819">
        <ele>230.2</ele>
        <time>2020-05-08T16:45:34Z</time>
      </trkpt>
      <trkpt lat="48.77654" lon="-0.55831">
        <ele>230.8</ele>
        <time>2020-05-08T16:45:37Z</time>
      </trkpt>
      <trkpt lat="48.77667" lon="-0.55842">
        <ele>231.2</ele>
        <time>2020-05-08T16:45:40Z</time>
      </trkpt>
      <trkpt lat="48.77684" lon="-0.55852">
        <ele>231.8</ele>
        <time>2020-05-08T16:45:44Z</time>
      </trkpt>
      <trkpt lat="48.77695" lon="-0.55858">
        <ele>232.2</ele>
        <time>2020-05-08T16:45:47Z</time>
      </trkpt>
      <trkpt lat="48.77717" lon="-0.55871">
        <ele>232.6</ele>
        <time>2020-05-08T16:45:54Z</time>
      </trkpt>
      <trkpt lat="48.77728" lon="-0.55878">
        <ele>233</ele>
        <time>2020-05-08T16:45:58Z</time>
      </trkpt>
      <trkpt lat="48.77746" lon="-0.55889">
        <ele>233.6</ele>
        <time>2020-05-08T16:46:03Z</time>
      </trkpt>
      <trkpt lat="48.77756" lon="-0.55893">
        <ele>234</ele>
        <time>2020-05-08T16:46:05Z</time>
      </trkpt>
      <trkpt lat="48.77777" lon="-0.55903">
        <ele>234.6</ele>
        <time>2020-05-08T16:46:09Z</time>
      </trkpt>
      <trkpt lat="48.77794" lon="-0.55911">
        <ele>235</ele>
        <time>2020-05-08T16:46:13Z</time>
      </trkpt>
      <trkpt lat="48.77803" lon="-0.55914">
        <ele>235.2</ele>
        <time>2020-05-08T16:46:15Z</time>
      </trkpt>
      <trkpt lat="48.7782" lon="-0.55917">
        <ele>233</ele>
        <time>2020-05-08T16:47:21Z</time>
      </trkpt>
      <trkpt lat="48.77827" lon="-0.55921">
        <ele>233.2</ele>
        <time>2020-05-08T16:47:25Z</time>
      </trkpt>
      <trkpt lat="48.77847" lon="-0.55922">
        <ele>233.4</ele>
        <time>2020-05-08T16:47:30Z</time>
      </trkpt>
      <trkpt lat="48.77881" lon="-0.55921">
        <ele>233.2</ele>
        <time>2020-05-08T16:47:38Z</time>
      </trkpt>
      <trkpt lat="48.77905" lon="-0.55926">
        <ele>233</ele>
        <time>2020-05-08T16:47:45Z</time>
      </trkpt>
      <trkpt lat="48.77922" lon="-0.55939">
        <ele>232.6</ele>
        <time>2020-05-08T16:47:50Z</time>
      </trkpt>
      <trkpt lat="48.7794" lon="-0.55957">
        <ele>232</ele>
        <time>2020-05-08T16:47:54Z</time>
      </trkpt>
      <trkpt lat="48.77954" lon="-0.55965">
        <ele>231.2</ele>
        <time>2020-05-08T16:47:56Z</time>
      </trkpt>
      <trkpt lat="48.77961" lon="-0.55967">
        <ele>230.6</ele>
        <time>2020-05-08T16:47:57Z</time>
      </trkpt>
      <trkpt lat="48.77973" lon="-0.55972">
        <ele>229.2</ele>
        <time>2020-05-08T16:47:59Z</time>
      </trkpt>
      <trkpt lat="48.77985" lon="-0.55978">
        <ele>229</ele>
        <time>2020-05-08T16:48:01Z</time>
      </trkpt>
      <trkpt lat="48.78" lon="-0.55986">
        <ele>228</ele>
        <time>2020-05-08T16:48:04Z</time>
      </trkpt>
      <trkpt lat="48.78011" lon="-0.55991">
        <ele>227</ele>
        <time>2020-05-08T16:48:06Z</time>
      </trkpt>
      <trkpt lat="48.78015" lon="-0.55994">
        <ele>226.6</ele>
        <time>2020-05-08T16:48:07Z</time>
      </trkpt>
      <trkpt lat="48.78027" lon="-0.56002">
        <ele>226.2</ele>
        <time>2020-05-08T16:48:10Z</time>
      </trkpt>
      <trkpt lat="48.78031" lon="-0.56006">
        <ele>226.2</ele>
        <time>2020-05-08T16:48:11Z</time>
      </trkpt>
      <trkpt lat="48.78058" lon="-0.56033">
        <ele>226.6</ele>
        <time>2020-05-08T16:48:18Z</time>
      </trkpt>
      <trkpt lat="48.78077" lon="-0.56056">
        <ele>228</ele>
        <time>2020-05-08T16:48:24Z</time>
      </trkpt>
      <trkpt lat="48.78088" lon="-0.56068">
        <ele>229</ele>
        <time>2020-05-08T16:48:27Z</time>
      </trkpt>
      <trkpt lat="48.78095" lon="-0.56079">
        <ele>229.2</ele>
        <time>2020-05-08T16:48:29Z</time>
      </trkpt>
      <trkpt lat="48.781" lon="-0.56085">
        <ele>229.6</ele>
        <time>2020-05-08T16:48:30Z</time>
      </trkpt>
      <trkpt lat="48.78117" lon="-0.56107">
        <ele>229.2</ele>
        <time>2020-05-08T16:48:35Z</time>
      </trkpt>
      <trkpt lat="48.78124" lon="-0.56122">
        <ele>219.6</ele>
        <time>2020-05-08T16:49:07Z</time>
      </trkpt>
      <trkpt lat="48.78126" lon="-0.56124">
        <ele>218</ele>
        <time>2020-05-08T16:49:08Z</time>
      </trkpt>
      <trkpt lat="48.78127" lon="-0.56128">
        <ele>216.2</ele>
        <time>2020-05-08T16:49:10Z</time>
      </trkpt>
      <trkpt lat="48.78131" lon="-0.56132">
        <ele>214.4</ele>
        <time>2020-05-08T16:49:12Z</time>
      </trkpt>
      <trkpt lat="48.78139" lon="-0.56137">
        <ele>212.6</ele>
        <time>2020-05-08T16:49:14Z</time>
      </trkpt>
      <trkpt lat="48.78144" lon="-0.5614">
        <ele>211.4</ele>
        <time>2020-05-08T16:49:15Z</time>
      </trkpt>
      <trkpt lat="48.78149" lon="-0.56143">
        <ele>210.4</ele>
        <time>2020-05-08T16:49:16Z</time>
      </trkpt>
      <trkpt lat="48.78161" lon="-0.56147">
        <ele>208.6</ele>
        <time>2020-05-08T16:49:18Z</time>
      </trkpt>
      <trkpt lat="48.78175" lon="-0.5615">
        <ele>207.2</ele>
        <time>2020-05-08T16:49:20Z</time>
      </trkpt>
      <trkpt lat="48.78182" lon="-0.56152">
        <ele>206.4</ele>
        <time>2020-05-08T16:49:21Z</time>
      </trkpt>
      <trkpt lat="48.78189" lon="-0.56153">
        <ele>205.8</ele>
        <time>2020-05-08T16:49:22Z</time>
      </trkpt>
      <trkpt lat="48.78203" lon="-0.56154">
        <ele>204.8</ele>
        <time>2020-05-08T16:49:24Z</time>
      </trkpt>
      <trkpt lat="48.78209" lon="-0.56152">
        <ele>204.4</ele>
        <time>2020-05-08T16:49:25Z</time>
      </trkpt>
      <trkpt lat="48.78215" lon="-0.5615">
        <ele>204</ele>
        <time>2020-05-08T16:49:26Z</time>
      </trkpt>
      <trkpt lat="48.78233" lon="-0.56148">
        <ele>203.6</ele>
        <time>2020-05-08T16:49:30Z</time>
      </trkpt>
      <trkpt lat="48.78241" lon="-0.56148">
        <ele>203.4</ele>
        <time>2020-05-08T16:49:34Z</time>
      </trkpt>
      <trkpt lat="48.78248" lon="-0.56148">
        <ele>203.2</ele>
        <time>2020-05-08T16:52:39Z</time>
      </trkpt>
      <trkpt lat="48.78253" lon="-0.56149">
        <ele>202.6</ele>
        <time>2020-05-08T16:52:42Z</time>
      </trkpt>
      <trkpt lat="48.78257" lon="-0.5615">
        <ele>202.2</ele>
        <time>2020-05-08T16:52:44Z</time>
      </trkpt>
      <trkpt lat="48.78264" lon="-0.56153">
        <ele>201.2</ele>
        <time>2020-05-08T16:52:48Z</time>
      </trkpt>
      <trkpt lat="48.78266" lon="-0.56154">
        <ele>201</ele>
        <time>2020-05-08T16:52:49Z</time>
      </trkpt>
      <trkpt lat="48.78273" lon="-0.56155">
        <ele>200.2</ele>
        <time>2020-05-08T16:52:52Z</time>
      </trkpt>
      <trkpt lat="48.7828" lon="-0.56154">
        <ele>199.8</ele>
        <time>2020-05-08T16:52:55Z</time>
      </trkpt>
      <trkpt lat="48.78292" lon="-0.56146">
        <ele>199.8</ele>
        <time>2020-05-08T16:53:02Z</time>
      </trkpt>
      <trkpt lat="48.78302" lon="-0.56153">
        <ele>200</ele>
        <time>2020-05-08T16:53:51Z</time>
      </trkpt>
      <trkpt lat="48.78311" lon="-0.56164">
        <ele>200.6</ele>
        <time>2020-05-08T16:53:55Z</time>
      </trkpt>
      <trkpt lat="48.78321" lon="-0.56173">
        <ele>199.8</ele>
        <time>2020-05-08T16:53:58Z</time>
      </trkpt>
      <trkpt lat="48.78331" lon="-0.56178">
        <ele>198.8</ele>
        <time>2020-05-08T16:54:01Z</time>
      </trkpt>
      <trkpt lat="48.78341" lon="-0.56182">
        <ele>198</ele>
        <time>2020-05-08T16:54:04Z</time>
      </trkpt>
      <trkpt lat="48.78344" lon="-0.56183">
        <ele>197.6</ele>
        <time>2020-05-08T16:54:05Z</time>
      </trkpt>
      <trkpt lat="48.78357" lon="-0.56189">
        <ele>196.6</ele>
        <time>2020-05-08T16:54:08Z</time>
      </trkpt>
      <trkpt lat="48.78367" lon="-0.56194">
        <ele>195.8</ele>
        <time>2020-05-08T16:54:10Z</time>
      </trkpt>
      <trkpt lat="48.78372" lon="-0.56196">
        <ele>195.2</ele>
        <time>2020-05-08T16:54:11Z</time>
      </trkpt>
      <trkpt lat="48.78378" lon="-0.56198">
        <ele>194.8</ele>
        <time>2020-05-08T16:54:12Z</time>
      </trkpt>
      <trkpt lat="48.78389" lon="-0.562">
        <ele>194</ele>
        <time>2020-05-08T16:54:14Z</time>
      </trkpt>
      <trkpt lat="48.78402" lon="-0.56202">
        <ele>193.8</ele>
        <time>2020-05-08T16:54:16Z</time>
      </trkpt>
      <trkpt lat="48.78419" lon="-0.56204">
        <ele>193</ele>
        <time>2020-05-08T16:54:19Z</time>
      </trkpt>
      <trkpt lat="48.78434" lon="-0.56208">
        <ele>192.4</ele>
        <time>2020-05-08T16:54:22Z</time>
      </trkpt>
      <trkpt lat="48.78439" lon="-0.56211">
        <ele>192.4</ele>
        <time>2020-05-08T16:54:23Z</time>
      </trkpt>
      <trkpt lat="48.78458" lon="-0.56227">
        <ele>193.2</ele>
        <time>2020-05-08T16:54:27Z</time>
      </trkpt>
      <trkpt lat="48.78469" lon="-0.56239">
        <ele>192.8</ele>
        <time>2020-05-08T16:54:32Z</time>
      </trkpt>
      <trkpt lat="48.78477" lon="-0.5626">
        <ele>192.6</ele>
        <time>2020-05-08T16:54:37Z</time>
      </trkpt>
      <trkpt lat="48.78484" lon="-0.56272">
        <ele>193.4</ele>
        <time>2020-05-08T16:54:39Z</time>
      </trkpt>
      <trkpt lat="48.78492" lon="-0.5628">
        <ele>194</ele>
        <time>2020-05-08T16:54:41Z</time>
      </trkpt>
      <trkpt lat="48.785" lon="-0.56288">
        <ele>194.2</ele>
        <time>2020-05-08T16:54:43Z</time>
      </trkpt>
      <trkpt lat="48.78517" lon="-0.563">
        <ele>194</ele>
        <time>2020-05-08T16:54:47Z</time>
      </trkpt>
      <trkpt lat="48.78539" lon="-0.56307">
        <ele>193</ele>
        <time>2020-05-08T16:54:51Z</time>
      </trkpt>
      <trkpt lat="48.78545" lon="-0.56308">
        <ele>193</ele>
        <time>2020-05-08T16:54:52Z</time>
      </trkpt>
      <trkpt lat="48.78591" lon="-0.56315">
        <ele>192.6</ele>
        <time>2020-05-08T16:55:00Z</time>
      </trkpt>
      <trkpt lat="48.78633" lon="-0.56331">
        <ele>193</ele>
        <time>2020-05-08T16:55:07Z</time>
      </trkpt>
      <trkpt lat="48.78653" lon="-0.5634">
        <ele>192.8</ele>
        <time>2020-05-08T16:55:10Z</time>
      </trkpt>
      <trkpt lat="48.78665" lon="-0.56349">
        <ele>192.8</ele>
        <time>2020-05-08T16:55:12Z</time>
      </trkpt>
      <trkpt lat="48.78675" lon="-0.56361">
        <ele>192.4</ele>
        <time>2020-05-08T16:55:14Z</time>
      </trkpt>
      <trkpt lat="48.78696" lon="-0.56385">
        <ele>192.4</ele>
        <time>2020-05-08T16:55:18Z</time>
      </trkpt>
      <trkpt lat="48.78713" lon="-0.56401">
        <ele>192.4</ele>
        <time>2020-05-08T16:55:22Z</time>
      </trkpt>
      <trkpt lat="48.78717" lon="-0.56404">
        <ele>192.4</ele>
        <time>2020-05-08T16:55:23Z</time>
      </trkpt>
      <trkpt lat="48.7873" lon="-0.56415">
        <ele>192.4</ele>
        <time>2020-05-08T16:55:26Z</time>
      </trkpt>
      <trkpt lat="48.78746" lon="-0.56428">
        <ele>192.8</ele>
        <time>2020-05-08T16:55:29Z</time>
      </trkpt>
      <trkpt lat="48.78772" lon="-0.56451">
        <ele>191.8</ele>
        <time>2020-05-08T16:55:33Z</time>
      </trkpt>
      <trkpt lat="48.78783" lon="-0.56462">
        <ele>191.2</ele>
        <time>2020-05-08T16:55:35Z</time>
      </trkpt>
      <trkpt lat="48.78789" lon="-0.56463">
        <ele>190.4</ele>
        <time>2020-05-08T16:55:36Z</time>
      </trkpt>
      <trkpt lat="48.788" lon="-0.56461">
        <ele>188.6</ele>
        <time>2020-05-08T16:55:38Z</time>
      </trkpt>
      <trkpt lat="48.7881" lon="-0.56459">
        <ele>187.2</ele>
        <time>2020-05-08T16:55:40Z</time>
      </trkpt>
      <trkpt lat="48.78817" lon="-0.56459">
        <ele>186.2</ele>
        <time>2020-05-08T16:55:42Z</time>
      </trkpt>
      <trkpt lat="48.78821" lon="-0.56459">
        <ele>185.6</ele>
        <time>2020-05-08T16:55:43Z</time>
      </trkpt>
      <trkpt lat="48.78824" lon="-0.56461">
        <ele>185</ele>
        <time>2020-05-08T16:55:44Z</time>
      </trkpt>
      <trkpt lat="48.78827" lon="-0.56463">
        <ele>184.6</ele>
        <time>2020-05-08T16:55:45Z</time>
      </trkpt>
      <trkpt lat="48.78831" lon="-0.5647">
        <ele>184.4</ele>
        <time>2020-05-08T16:55:47Z</time>
      </trkpt>
      <trkpt lat="48.78835" lon="-0.56487">
        <ele>183.8</ele>
        <time>2020-05-08T16:55:51Z</time>
      </trkpt>
      <trkpt lat="48.78834" lon="-0.56492">
        <ele>183.4</ele>
        <time>2020-05-08T16:55:52Z</time>
      </trkpt>
      <trkpt lat="48.78834" lon="-0.56507">
        <ele>182.6</ele>
        <time>2020-05-08T16:55:55Z</time>
      </trkpt>
      <trkpt lat="48.78836" lon="-0.56523">
        <ele>183</ele>
        <time>2020-05-08T16:55:58Z</time>
      </trkpt>
      <trkpt lat="48.78835" lon="-0.56556">
        <ele>183.2</ele>
        <time>2020-05-08T16:56:04Z</time>
      </trkpt>
      <trkpt lat="48.78827" lon="-0.56575">
        <ele>182.2</ele>
        <time>2020-05-08T16:56:08Z</time>
      </trkpt>
      <trkpt lat="48.78827" lon="-0.56581">
        <ele>182.2</ele>
        <time>2020-05-08T16:56:09Z</time>
      </trkpt>
      <trkpt lat="48.78829" lon="-0.56593">
        <ele>182.2</ele>
        <time>2020-05-08T16:56:11Z</time>
      </trkpt>
      <trkpt lat="48.78839" lon="-0.56602">
        <ele>182</ele>
        <time>2020-05-08T16:56:14Z</time>
      </trkpt>
      <trkpt lat="48.78843" lon="-0.56601">
        <ele>181.6</ele>
        <time>2020-05-08T16:56:15Z</time>
      </trkpt>
      <trkpt lat="48.78847" lon="-0.56599">
        <ele>181.4</ele>
        <time>2020-05-08T16:56:16Z</time>
      </trkpt>
      <trkpt lat="48.78858" lon="-0.56597">
        <ele>181.2</ele>
        <time>2020-05-08T16:56:19Z</time>
      </trkpt>
      <trkpt lat="48.7888" lon="-0.56602">
        <ele>181</ele>
        <time>2020-05-08T16:56:26Z</time>
      </trkpt>
      <trkpt lat="48.78902" lon="-0.56616">
        <ele>180.8</ele>
        <time>2020-05-08T16:56:34Z</time>
      </trkpt>
      <trkpt lat="48.78903" lon="-0.56619">
        <ele>180.8</ele>
        <time>2020-05-08T16:56:35Z</time>
      </trkpt>
      <trkpt lat="48.78905" lon="-0.56632">
        <ele>180.6</ele>
        <time>2020-05-08T16:56:38Z</time>
      </trkpt>
      <trkpt lat="48.78905" lon="-0.56636">
        <ele>180.6</ele>
        <time>2020-05-08T16:56:39Z</time>
      </trkpt>
      <trkpt lat="48.78906" lon="-0.5665">
        <ele>180.6</ele>
        <time>2020-05-08T16:56:42Z</time>
      </trkpt>
      <trkpt lat="48.78907" lon="-0.56665">
        <ele>180.6</ele>
        <time>2020-05-08T16:56:45Z</time>
      </trkpt>
      <trkpt lat="48.78911" lon="-0.56689">
        <ele>179.2</ele>
        <time>2020-05-08T16:56:50Z</time>
      </trkpt>
      <trkpt lat="48.78914" lon="-0.56703">
        <ele>179</ele>
        <time>2020-05-08T16:56:53Z</time>
      </trkpt>
      <trkpt lat="48.78918" lon="-0.56732">
        <ele>178.8</ele>
        <time>2020-05-08T16:56:59Z</time>
      </trkpt>
      <trkpt lat="48.78921" lon="-0.56752">
        <ele>178.2</ele>
        <time>2020-05-08T16:57:03Z</time>
      </trkpt>
      <trkpt lat="48.78922" lon="-0.56768">
        <ele>178.2</ele>
        <time>2020-05-08T16:57:06Z</time>
      </trkpt>
      <trkpt lat="48.78921" lon="-0.56801">
        <ele>178</ele>
        <time>2020-05-08T16:57:12Z</time>
      </trkpt>
      <trkpt lat="48.78913" lon="-0.56834">
        <ele>178</ele>
        <time>2020-05-08T16:57:18Z</time>
      </trkpt>
      <trkpt lat="48.78901" lon="-0.56876">
        <ele>178</ele>
        <time>2020-05-08T16:57:26Z</time>
      </trkpt>
      <trkpt lat="48.78899" lon="-0.56888">
        <ele>178</ele>
        <time>2020-05-08T16:57:28Z</time>
      </trkpt>
      <trkpt lat="48.78899" lon="-0.56913">
        <ele>178</ele>
        <time>2020-05-08T16:57:32Z</time>
      </trkpt>
      <trkpt lat="48.78899" lon="-0.5692">
        <ele>178</ele>
        <time>2020-05-08T16:57:33Z</time>
      </trkpt>
      <trkpt lat="48.78904" lon="-0.56943">
        <ele>177.4</ele>
        <time>2020-05-08T16:57:36Z</time>
      </trkpt>
      <trkpt lat="48.78906" lon="-0.56951">
        <ele>177.2</ele>
        <time>2020-05-08T16:57:37Z</time>
      </trkpt>
      <trkpt lat="48.78912" lon="-0.56964">
        <ele>177.2</ele>
        <time>2020-05-08T16:57:39Z</time>
      </trkpt>
      <trkpt lat="48.78915" lon="-0.5697">
        <ele>177.2</ele>
        <time>2020-05-08T16:57:40Z</time>
      </trkpt>
      <trkpt lat="48.78929" lon="-0.56999">
        <ele>177.2</ele>
        <time>2020-05-08T16:57:46Z</time>
      </trkpt>
      <trkpt lat="48.78941" lon="-0.57019">
        <ele>178</ele>
        <time>2020-05-08T16:57:52Z</time>
      </trkpt>
      <trkpt lat="48.78944" lon="-0.57026">
        <ele>178.4</ele>
        <time>2020-05-08T16:57:54Z</time>
      </trkpt>
      <trkpt lat="48.78948" lon="-0.57036">
        <ele>178.6</ele>
        <time>2020-05-08T16:57:57Z</time>
      </trkpt>
      <trkpt lat="48.78956" lon="-0.57051">
        <ele>179.6</ele>
        <time>2020-05-08T16:58:03Z</time>
      </trkpt>
      <trkpt lat="48.78958" lon="-0.57053">
        <ele>179.8</ele>
        <time>2020-05-08T16:58:04Z</time>
      </trkpt>
      <trkpt lat="48.78966" lon="-0.57067">
        <ele>180.2</ele>
        <time>2020-05-08T16:58:11Z</time>
      </trkpt>
      <trkpt lat="48.78974" lon="-0.57081">
        <ele>180.6</ele>
        <time>2020-05-08T16:58:17Z</time>
      </trkpt>
      <trkpt lat="48.78977" lon="-0.57089">
        <ele>180.6</ele>
        <time>2020-05-08T16:58:20Z</time>
      </trkpt>
      <trkpt lat="48.78982" lon="-0.57107">
        <ele>180.6</ele>
        <time>2020-05-08T16:58:26Z</time>
      </trkpt>
      <trkpt lat="48.78984" lon="-0.57123">
        <ele>180.6</ele>
        <time>2020-05-08T16:58:31Z</time>
      </trkpt>
      <trkpt lat="48.78987" lon="-0.57143">
        <ele>180.8</ele>
        <time>2020-05-08T16:58:37Z</time>
      </trkpt>
      <trkpt lat="48.78991" lon="-0.57167">
        <ele>181.2</ele>
        <time>2020-05-08T16:58:45Z</time>
      </trkpt>
      <trkpt lat="48.78993" lon="-0.57176">
        <ele>181.8</ele>
        <time>2020-05-08T16:58:48Z</time>
      </trkpt>
      <trkpt lat="48.78998" lon="-0.57188">
        <ele>182.8</ele>
        <time>2020-05-08T16:58:53Z</time>
      </trkpt>
      <trkpt lat="48.78999" lon="-0.5719">
        <ele>183</ele>
        <time>2020-05-08T16:58:54Z</time>
      </trkpt>
      <trkpt lat="48.79" lon="-0.57196">
        <ele>183.4</ele>
        <time>2020-05-08T16:58:57Z</time>
      </trkpt>
      <trkpt lat="48.79004" lon="-0.57199">
        <ele>184.8</ele>
        <time>2020-05-08T17:01:51Z</time>
      </trkpt>
      <trkpt lat="48.79005" lon="-0.572">
        <ele>185</ele>
        <time>2020-05-08T17:01:52Z</time>
      </trkpt>
      <trkpt lat="48.79006" lon="-0.57203">
        <ele>185.2</ele>
        <time>2020-05-08T17:01:53Z</time>
      </trkpt>
      <trkpt lat="48.79016" lon="-0.57211">
        <ele>184.8</ele>
        <time>2020-05-08T17:01:58Z</time>
      </trkpt>
      <trkpt lat="48.79018" lon="-0.57213">
        <ele>184.6</ele>
        <time>2020-05-08T17:01:59Z</time>
      </trkpt>
      <trkpt lat="48.79023" lon="-0.57218">
        <ele>183.8</ele>
        <time>2020-05-08T17:02:02Z</time>
      </trkpt>
      <trkpt lat="48.79031" lon="-0.57225">
        <ele>183.8</ele>
        <time>2020-05-08T17:02:07Z</time>
      </trkpt>
      <trkpt lat="48.79038" lon="-0.57234">
        <ele>184.8</ele>
        <time>2020-05-08T17:02:12Z</time>
      </trkpt>
      <trkpt lat="48.7904" lon="-0.57239">
        <ele>185.2</ele>
        <time>2020-05-08T17:02:14Z</time>
      </trkpt>
      <trkpt lat="48.79045" lon="-0.57243">
        <ele>186</ele>
        <time>2020-05-08T17:02:18Z</time>
      </trkpt>
      <trkpt lat="48.79047" lon="-0.57248">
        <ele>186.8</ele>
        <time>2020-05-08T17:02:20Z</time>
      </trkpt>
      <trkpt lat="48.79049" lon="-0.57249">
        <ele>187.2</ele>
        <time>2020-05-08T17:02:21Z</time>
      </trkpt>
      <trkpt lat="48.79054" lon="-0.57255">
        <ele>188.2</ele>
        <time>2020-05-08T17:02:25Z</time>
      </trkpt>
      <trkpt lat="48.79055" lon="-0.57257">
        <ele>188.4</ele>
        <time>2020-05-08T17:02:26Z</time>
      </trkpt>
      <trkpt lat="48.79064" lon="-0.57264">
        <ele>189.2</ele>
        <time>2020-05-08T17:02:32Z</time>
      </trkpt>
      <trkpt lat="48.79067" lon="-0.57267">
        <ele>189.8</ele>
        <time>2020-05-08T17:02:34Z</time>
      </trkpt>
      <trkpt lat="48.7907" lon="-0.5727">
        <ele>190.4</ele>
        <time>2020-05-08T17:02:36Z</time>
      </trkpt>
      <trkpt lat="48.7908" lon="-0.57279">
        <ele>191.2</ele>
        <time>2020-05-08T17:02:42Z</time>
      </trkpt>
      <trkpt lat="48.79083" lon="-0.57284">
        <ele>191.8</ele>
        <time>2020-05-08T17:02:44Z</time>
      </trkpt>
      <trkpt lat="48.79089" lon="-0.5729">
        <ele>192.8</ele>
        <time>2020-05-08T17:02:48Z</time>
      </trkpt>
      <trkpt lat="48.79098" lon="-0.57302">
        <ele>193.6</ele>
        <time>2020-05-08T17:02:54Z</time>
      </trkpt>
      <trkpt lat="48.791" lon="-0.57303">
        <ele>193.8</ele>
        <time>2020-05-08T17:02:55Z</time>
      </trkpt>
      <trkpt lat="48.79108" lon="-0.57312">
        <ele>194.4</ele>
        <time>2020-05-08T17:03:00Z</time>
      </trkpt>
      <trkpt lat="48.79114" lon="-0.57317">
        <ele>195</ele>
        <time>2020-05-08T17:03:03Z</time>
      </trkpt>
      <trkpt lat="48.7912" lon="-0.57324">
        <ele>195.8</ele>
        <time>2020-05-08T17:03:07Z</time>
      </trkpt>
      <trkpt lat="48.79123" lon="-0.57327">
        <ele>196.2</ele>
        <time>2020-05-08T17:03:09Z</time>
      </trkpt>
      <trkpt lat="48.7913" lon="-0.57337">
        <ele>196.8</ele>
        <time>2020-05-08T17:03:14Z</time>
      </trkpt>
      <trkpt lat="48.79135" lon="-0.57343">
        <ele>197.2</ele>
        <time>2020-05-08T17:03:17Z</time>
      </trkpt>
      <trkpt lat="48.7914" lon="-0.57347">
        <ele>197.6</ele>
        <time>2020-05-08T17:03:19Z</time>
      </trkpt>
      <trkpt lat="48.79151" lon="-0.57355">
        <ele>198.2</ele>
        <time>2020-05-08T17:03:23Z</time>
      </trkpt>
      <trkpt lat="48.79153" lon="-0.57357">
        <ele>198.4</ele>
        <time>2020-05-08T17:03:24Z</time>
      </trkpt>
      <trkpt lat="48.79157" lon="-0.57362">
        <ele>198.8</ele>
        <time>2020-05-08T17:03:26Z</time>
      </trkpt>
      <trkpt lat="48.79162" lon="-0.57368">
        <ele>199.4</ele>
        <time>2020-05-08T17:03:29Z</time>
      </trkpt>
      <trkpt lat="48.79165" lon="-0.57375">
        <ele>199.8</ele>
        <time>2020-05-08T17:03:32Z</time>
      </trkpt>
      <trkpt lat="48.79167" lon="-0.57379">
        <ele>200</ele>
        <time>2020-05-08T17:03:34Z</time>
      </trkpt>
      <trkpt lat="48.79173" lon="-0.57382">
        <ele>200.4</ele>
        <time>2020-05-08T17:03:37Z</time>
      </trkpt>
      <trkpt lat="48.79183" lon="-0.57394">
        <ele>201.2</ele>
        <time>2020-05-08T17:03:42Z</time>
      </trkpt>
      <trkpt lat="48.79186" lon="-0.57397">
        <ele>201.4</ele>
        <time>2020-05-08T17:03:43Z</time>
      </trkpt>
      <trkpt lat="48.79201" lon="-0.57414">
        <ele>202</ele>
        <time>2020-05-08T17:03:47Z</time>
      </trkpt>
      <trkpt lat="48.79215" lon="-0.57428">
        <ele>202.6</ele>
        <time>2020-05-08T17:03:50Z</time>
      </trkpt>
      <trkpt lat="48.7923" lon="-0.57443">
        <ele>203.2</ele>
        <time>2020-05-08T17:03:53Z</time>
      </trkpt>
      <trkpt lat="48.79238" lon="-0.57452">
        <ele>203.6</ele>
        <time>2020-05-08T17:03:55Z</time>
      </trkpt>
      <trkpt lat="48.79255" lon="-0.57468">
        <ele>203.4</ele>
        <time>2020-05-08T17:03:59Z</time>
      </trkpt>
      <trkpt lat="48.79271" lon="-0.57477">
        <ele>203.4</ele>
        <time>2020-05-08T17:04:02Z</time>
      </trkpt>
      <trkpt lat="48.79282" lon="-0.57479">
        <ele>203.4</ele>
        <time>2020-05-08T17:04:04Z</time>
      </trkpt>
      <trkpt lat="48.79287" lon="-0.57481">
        <ele>203.4</ele>
        <time>2020-05-08T17:04:05Z</time>
      </trkpt>
      <trkpt lat="48.79298" lon="-0.57494">
        <ele>203.4</ele>
        <time>2020-05-08T17:04:08Z</time>
      </trkpt>
      <trkpt lat="48.79298" lon="-0.57518">
        <ele>203</ele>
        <time>2020-05-08T17:04:11Z</time>
      </trkpt>
      <trkpt lat="48.79286" lon="-0.5754">
        <ele>202.8</ele>
        <time>2020-05-08T17:04:14Z</time>
      </trkpt>
      <trkpt lat="48.79282" lon="-0.57548">
        <ele>202.6</ele>
        <time>2020-05-08T17:04:15Z</time>
      </trkpt>
      <trkpt lat="48.7928" lon="-0.57557">
        <ele>202.6</ele>
        <time>2020-05-08T17:04:16Z</time>
      </trkpt>
      <trkpt lat="48.79278" lon="-0.57563">
        <ele>202.6</ele>
        <time>2020-05-08T17:04:17Z</time>
      </trkpt>
      <trkpt lat="48.79276" lon="-0.57567">
        <ele>202.2</ele>
        <time>2020-05-08T17:04:20Z</time>
      </trkpt>
      <trkpt lat="48.79277" lon="-0.5756">
        <ele>202.2</ele>
        <time>2020-05-08T17:04:24Z</time>
      </trkpt>
      <trkpt lat="48.79283" lon="-0.57558">
        <ele>202.4</ele>
        <time>2020-05-08T17:04:29Z</time>
      </trkpt>
      <trkpt lat="48.79284" lon="-0.57568">
        <ele>202</ele>
        <time>2020-05-08T17:04:33Z</time>
      </trkpt>
      <trkpt lat="48.79282" lon="-0.57575">
        <ele>201.6</ele>
        <time>2020-05-08T17:04:50Z</time>
      </trkpt>
      <trkpt lat="48.79282" lon="-0.57577">
        <ele>201.4</ele>
        <time>2020-05-08T17:04:51Z</time>
      </trkpt>
      <trkpt lat="48.79279" lon="-0.57592">
        <ele>200.8</ele>
        <time>2020-05-08T17:04:56Z</time>
      </trkpt>
      <trkpt lat="48.79271" lon="-0.57616">
        <ele>200.4</ele>
        <time>2020-05-08T17:05:02Z</time>
      </trkpt>
      <trkpt lat="48.7927" lon="-0.5762">
        <ele>200.2</ele>
        <time>2020-05-08T17:05:03Z</time>
      </trkpt>
      <trkpt lat="48.79257" lon="-0.57657">
        <ele>199.6</ele>
        <time>2020-05-08T17:05:11Z</time>
      </trkpt>
      <trkpt lat="48.79254" lon="-0.57667">
        <ele>199.2</ele>
        <time>2020-05-08T17:05:13Z</time>
      </trkpt>
      <trkpt lat="48.79243" lon="-0.57695">
        <ele>199</ele>
        <time>2020-05-08T17:05:19Z</time>
      </trkpt>
      <trkpt lat="48.79227" lon="-0.57738">
        <ele>198.6</ele>
        <time>2020-05-08T17:05:28Z</time>
      </trkpt>
      <trkpt lat="48.79212" lon="-0.57768">
        <ele>198.4</ele>
        <time>2020-05-08T17:05:35Z</time>
      </trkpt>
      <trkpt lat="48.79192" lon="-0.5781">
        <ele>198.4</ele>
        <time>2020-05-08T17:05:45Z</time>
      </trkpt>
      <trkpt lat="48.7919" lon="-0.57814">
        <ele>198.2</ele>
        <time>2020-05-08T17:05:46Z</time>
      </trkpt>
      <trkpt lat="48.79179" lon="-0.57836">
        <ele>198.2</ele>
        <time>2020-05-08T17:05:52Z</time>
      </trkpt>
      <trkpt lat="48.79165" lon="-0.57862">
        <ele>197.6</ele>
        <time>2020-05-08T17:06:00Z</time>
      </trkpt>
      <trkpt lat="48.79154" lon="-0.57882">
        <ele>197.8</ele>
        <time>2020-05-08T17:06:07Z</time>
      </trkpt>
      <trkpt lat="48.79155" lon="-0.57889">
        <ele>198</ele>
        <time>2020-05-08T17:06:09Z</time>
      </trkpt>
      <trkpt lat="48.79158" lon="-0.57893">
        <ele>198</ele>
        <time>2020-05-08T17:06:11Z</time>
      </trkpt>
      <trkpt lat="48.79158" lon="-0.57904">
        <ele>198.6</ele>
        <time>2020-05-08T17:06:15Z</time>
      </trkpt>
      <trkpt lat="48.79153" lon="-0.57912">
        <ele>199</ele>
        <time>2020-05-08T17:06:18Z</time>
      </trkpt>
      <trkpt lat="48.79148" lon="-0.57918">
        <ele>199</ele>
        <time>2020-05-08T17:06:21Z</time>
      </trkpt>
      <trkpt lat="48.79146" lon="-0.57918">
        <ele>199.2</ele>
        <time>2020-05-08T17:06:22Z</time>
      </trkpt>
      <trkpt lat="48.79145" lon="-0.57916">
        <ele>199.4</ele>
        <time>2020-05-08T17:06:23Z</time>
      </trkpt>
      <trkpt lat="48.79144" lon="-0.57912">
        <ele>199.6</ele>
        <time>2020-05-08T17:06:24Z</time>
      </trkpt>
      <trkpt lat="48.79137" lon="-0.57909">
        <ele>200</ele>
        <time>2020-05-08T17:06:28Z</time>
      </trkpt>
      <trkpt lat="48.79133" lon="-0.57916">
        <ele>200</ele>
        <time>2020-05-08T17:06:30Z</time>
      </trkpt>
      <trkpt lat="48.79127" lon="-0.57926">
        <ele>200</ele>
        <time>2020-05-08T17:06:33Z</time>
      </trkpt>
      <trkpt lat="48.79106" lon="-0.57953">
        <ele>200.2</ele>
        <time>2020-05-08T17:06:42Z</time>
      </trkpt>
      <trkpt lat="48.79087" lon="-0.57976">
        <ele>200</ele>
        <time>2020-05-08T17:06:50Z</time>
      </trkpt>
      <trkpt lat="48.7907" lon="-0.57998">
        <ele>199.8</ele>
        <time>2020-05-08T17:06:58Z</time>
      </trkpt>
      <trkpt lat="48.79051" lon="-0.58021">
        <ele>200</ele>
        <time>2020-05-08T17:07:07Z</time>
      </trkpt>
      <trkpt lat="48.79034" lon="-0.58041">
        <ele>199.4</ele>
        <time>2020-05-08T17:07:14Z</time>
      </trkpt>
      <trkpt lat="48.79009" lon="-0.58067">
        <ele>198.6</ele>
        <time>2020-05-08T17:07:22Z</time>
      </trkpt>
      <trkpt lat="48.79005" lon="-0.5807">
        <ele>198.2</ele>
        <time>2020-05-08T17:07:23Z</time>
      </trkpt>
      <trkpt lat="48.78985" lon="-0.58087">
        <ele>197.6</ele>
        <time>2020-05-08T17:07:30Z</time>
      </trkpt>
      <trkpt lat="48.78967" lon="-0.58103">
        <ele>197.4</ele>
        <time>2020-05-08T17:07:37Z</time>
      </trkpt>
      <trkpt lat="48.78954" lon="-0.58114">
        <ele>197</ele>
        <time>2020-05-08T17:07:42Z</time>
      </trkpt>
      <trkpt lat="48.78945" lon="-0.58121">
        <ele>196.6</ele>
        <time>2020-05-08T17:07:46Z</time>
      </trkpt>
      <trkpt lat="48.78931" lon="-0.58132">
        <ele>196.2</ele>
        <time>2020-05-08T17:07:53Z</time>
      </trkpt>
      <trkpt lat="48.78929" lon="-0.58134">
        <ele>196</ele>
        <time>2020-05-08T17:07:54Z</time>
      </trkpt>
      <trkpt lat="48.78915" lon="-0.58141">
        <ele>195.2</ele>
        <time>2020-05-08T17:08:02Z</time>
      </trkpt>
      <trkpt lat="48.78903" lon="-0.58149">
        <ele>195.2</ele>
        <time>2020-05-08T17:08:09Z</time>
      </trkpt>
      <trkpt lat="48.78895" lon="-0.58155">
        <ele>195.4</ele>
        <time>2020-05-08T17:08:15Z</time>
      </trkpt>
      <trkpt lat="48.78881" lon="-0.58164">
        <ele>195</ele>
        <time>2020-05-08T17:08:24Z</time>
      </trkpt>
      <trkpt lat="48.78879" lon="-0.58165">
        <ele>194.8</ele>
        <time>2020-05-08T17:08:25Z</time>
      </trkpt>
      <trkpt lat="48.78869" lon="-0.58171">
        <ele>194.6</ele>
        <time>2020-05-08T17:08:31Z</time>
      </trkpt>
      <trkpt lat="48.78866" lon="-0.58172">
        <ele>194.8</ele>
        <time>2020-05-08T17:08:33Z</time>
      </trkpt>
      <trkpt lat="48.78859" lon="-0.58179">
        <ele>194.6</ele>
        <time>2020-05-08T17:08:37Z</time>
      </trkpt>
      <trkpt lat="48.78848" lon="-0.58183">
        <ele>195.2</ele>
        <time>2020-05-08T17:08:43Z</time>
      </trkpt>
      <trkpt lat="48.78842" lon="-0.58184">
        <ele>195.4</ele>
        <time>2020-05-08T17:08:48Z</time>
      </trkpt>
      <trkpt lat="48.78832" lon="-0.58188">
        <ele>194.8</ele>
        <time>2020-05-08T17:08:55Z</time>
      </trkpt>
      <trkpt lat="48.78819" lon="-0.58194">
        <ele>194.6</ele>
        <time>2020-05-08T17:09:03Z</time>
      </trkpt>
      <trkpt lat="48.78802" lon="-0.58204">
        <ele>195</ele>
        <time>2020-05-08T17:09:11Z</time>
      </trkpt>
      <trkpt lat="48.78797" lon="-0.58209">
        <ele>195</ele>
        <time>2020-05-08T17:09:14Z</time>
      </trkpt>
      <trkpt lat="48.78797" lon="-0.58212">
        <ele>195.2</ele>
        <time>2020-05-08T17:09:15Z</time>
      </trkpt>
      <trkpt lat="48.788" lon="-0.58226">
        <ele>195.6</ele>
        <time>2020-05-08T17:09:20Z</time>
      </trkpt>
      <trkpt lat="48.78799" lon="-0.58228">
        <ele>195.4</ele>
        <time>2020-05-08T17:09:21Z</time>
      </trkpt>
      <trkpt lat="48.78795" lon="-0.5823">
        <ele>195.2</ele>
        <time>2020-05-08T17:09:24Z</time>
      </trkpt>
      <trkpt lat="48.78788" lon="-0.58229">
        <ele>195.4</ele>
        <time>2020-05-08T17:09:28Z</time>
      </trkpt>
      <trkpt lat="48.78786" lon="-0.58224">
        <ele>195.4</ele>
        <time>2020-05-08T17:09:30Z</time>
      </trkpt>
      <trkpt lat="48.78783" lon="-0.58219">
        <ele>195.4</ele>
        <time>2020-05-08T17:09:32Z</time>
      </trkpt>
      <trkpt lat="48.78777" lon="-0.58217">
        <ele>195.2</ele>
        <time>2020-05-08T17:09:35Z</time>
      </trkpt>
      <trkpt lat="48.78769" lon="-0.58206">
        <ele>195.2</ele>
        <time>2020-05-08T17:09:40Z</time>
      </trkpt>
      <trkpt lat="48.78766" lon="-0.58195">
        <ele>195</ele>
        <time>2020-05-08T17:09:44Z</time>
      </trkpt>
      <trkpt lat="48.78766" lon="-0.58191">
        <ele>195</ele>
        <time>2020-05-08T17:09:45Z</time>
      </trkpt>
      <trkpt lat="48.78772" lon="-0.58172">
        <ele>194.6</ele>
        <time>2020-05-08T17:09:50Z</time>
      </trkpt>
      <trkpt lat="48.78774" lon="-0.58169">
        <ele>194.6</ele>
        <time>2020-05-08T17:09:51Z</time>
      </trkpt>
      <trkpt lat="48.78777" lon="-0.58149">
        <ele>194.4</ele>
        <time>2020-05-08T17:09:56Z</time>
      </trkpt>
      <trkpt lat="48.78776" lon="-0.58115">
        <ele>194</ele>
        <time>2020-05-08T17:10:03Z</time>
      </trkpt>
      <trkpt lat="48.78773" lon="-0.58091">
        <ele>193.2</ele>
        <time>2020-05-08T17:10:08Z</time>
      </trkpt>
      <trkpt lat="48.78769" lon="-0.58065">
        <ele>192.8</ele>
        <time>2020-05-08T17:10:13Z</time>
      </trkpt>
      <trkpt lat="48.78768" lon="-0.58059">
        <ele>192.6</ele>
        <time>2020-05-08T17:10:14Z</time>
      </trkpt>
      <trkpt lat="48.78764" lon="-0.58031">
        <ele>192</ele>
        <time>2020-05-08T17:10:19Z</time>
      </trkpt>
      <trkpt lat="48.78763" lon="-0.58026">
        <ele>191.8</ele>
        <time>2020-05-08T17:10:20Z</time>
      </trkpt>
      <trkpt lat="48.7876" lon="-0.58008">
        <ele>191</ele>
        <time>2020-05-08T17:10:24Z</time>
      </trkpt>
      <trkpt lat="48.78759" lon="-0.58003">
        <ele>190.8</ele>
        <time>2020-05-08T17:10:25Z</time>
      </trkpt>
      <trkpt lat="48.78754" lon="-0.5797">
        <ele>190</ele>
        <time>2020-05-08T17:10:30Z</time>
      </trkpt>
      <trkpt lat="48.78753" lon="-0.57963">
        <ele>189.6</ele>
        <time>2020-05-08T17:10:31Z</time>
      </trkpt>
      <trkpt lat="48.78751" lon="-0.57955">
        <ele>189.4</ele>
        <time>2020-05-08T17:10:32Z</time>
      </trkpt>
      <trkpt lat="48.78742" lon="-0.57938">
        <ele>188.6</ele>
        <time>2020-05-08T17:10:35Z</time>
      </trkpt>
      <trkpt lat="48.78722" lon="-0.5793">
        <ele>187.8</ele>
        <time>2020-05-08T17:10:39Z</time>
      </trkpt>
      <trkpt lat="48.78716" lon="-0.57937">
        <ele>187.6</ele>
        <time>2020-05-08T17:10:41Z</time>
      </trkpt>
      <trkpt lat="48.78715" lon="-0.57941">
        <ele>187.6</ele>
        <time>2020-05-08T17:10:42Z</time>
      </trkpt>
      <trkpt lat="48.78716" lon="-0.57957">
        <ele>187.6</ele>
        <time>2020-05-08T17:10:45Z</time>
      </trkpt>
      <trkpt lat="48.78717" lon="-0.57962">
        <ele>187.6</ele>
        <time>2020-05-08T17:10:46Z</time>
      </trkpt>
      <trkpt lat="48.78717" lon="-0.57997">
        <ele>188.2</ele>
        <time>2020-05-08T17:10:53Z</time>
      </trkpt>
      <trkpt lat="48.78709" lon="-0.58016">
        <ele>188.4</ele>
        <time>2020-05-08T17:10:58Z</time>
      </trkpt>
      <trkpt lat="48.78695" lon="-0.58013">
        <ele>188.4</ele>
        <time>2020-05-08T17:11:03Z</time>
      </trkpt>
      <trkpt lat="48.78686" lon="-0.58011">
        <ele>188.6</ele>
        <time>2020-05-08T17:11:06Z</time>
      </trkpt>
      <trkpt lat="48.78674" lon="-0.58004">
        <ele>189.2</ele>
        <time>2020-05-08T17:11:10Z</time>
      </trkpt>
      <trkpt lat="48.78654" lon="-0.57984">
        <ele>189.4</ele>
        <time>2020-05-08T17:11:17Z</time>
      </trkpt>
      <trkpt lat="48.78643" lon="-0.57966">
        <ele>189.6</ele>
        <time>2020-05-08T17:11:22Z</time>
      </trkpt>
      <trkpt lat="48.78636" lon="-0.57949">
        <ele>189.8</ele>
        <time>2020-05-08T17:11:26Z</time>
      </trkpt>
      <trkpt lat="48.78629" lon="-0.57915">
        <ele>189.8</ele>
        <time>2020-05-08T17:11:34Z</time>
      </trkpt>
      <trkpt lat="48.78623" lon="-0.57896">
        <ele>189.6</ele>
        <time>2020-05-08T17:11:40Z</time>
      </trkpt>
      <trkpt lat="48.78617" lon="-0.57895">
        <ele>190</ele>
        <time>2020-05-08T17:11:44Z</time>
      </trkpt>
      <trkpt lat="48.7861" lon="-0.57905">
        <ele>190.6</ele>
        <time>2020-05-08T17:11:50Z</time>
      </trkpt>
      <trkpt lat="48.78609" lon="-0.57908">
        <ele>190.6</ele>
        <time>2020-05-08T17:11:52Z</time>
      </trkpt>
      <trkpt lat="48.7861" lon="-0.57909">
        <ele>190.8</ele>
        <time>2020-05-08T17:11:54Z</time>
      </trkpt>
      <trkpt lat="48.78611" lon="-0.57908">
        <ele>191</ele>
        <time>2020-05-08T17:11:55Z</time>
      </trkpt>
      <trkpt lat="48.78614" lon="-0.57902">
        <ele>191.2</ele>
        <time>2020-05-08T17:11:58Z</time>
      </trkpt>
      <trkpt lat="48.78617" lon="-0.57892">
        <ele>190.8</ele>
        <time>2020-05-08T17:12:00Z</time>
      </trkpt>
      <trkpt lat="48.78617" lon="-0.5788">
        <ele>190.8</ele>
        <time>2020-05-08T17:12:02Z</time>
      </trkpt>
      <trkpt lat="48.78616" lon="-0.57874">
        <ele>190.4</ele>
        <time>2020-05-08T17:12:03Z</time>
      </trkpt>
      <trkpt lat="48.78611" lon="-0.57853">
        <ele>189.6</ele>
        <time>2020-05-08T17:12:07Z</time>
      </trkpt>
      <trkpt lat="48.78616" lon="-0.57825">
        <ele>189.2</ele>
        <time>2020-05-08T17:12:12Z</time>
      </trkpt>
      <trkpt lat="48.78617" lon="-0.57828">
        <ele>186.2</ele>
        <time>2020-05-08T17:36:09Z</time>
      </trkpt>
      <trkpt lat="48.78616" lon="-0.57832">
        <ele>186.6</ele>
        <time>2020-05-08T17:36:11Z</time>
      </trkpt>
      <trkpt lat="48.78612" lon="-0.5785">
        <ele>186.8</ele>
        <time>2020-05-08T17:36:15Z</time>
      </trkpt>
      <trkpt lat="48.78615" lon="-0.57871">
        <ele>187.4</ele>
        <time>2020-05-08T17:36:18Z</time>
      </trkpt>
      <trkpt lat="48.78617" lon="-0.57877">
        <ele>187.6</ele>
        <time>2020-05-08T17:36:19Z</time>
      </trkpt>
      <trkpt lat="48.78618" lon="-0.57884">
        <ele>187.8</ele>
        <time>2020-05-08T17:36:20Z</time>
      </trkpt>
      <trkpt lat="48.78618" lon="-0.57895">
        <ele>188.2</ele>
        <time>2020-05-08T17:36:22Z</time>
      </trkpt>
      <trkpt lat="48.78613" lon="-0.57904">
        <ele>188.6</ele>
        <time>2020-05-08T17:36:24Z</time>
      </trkpt>
      <trkpt lat="48.7861" lon="-0.57908">
        <ele>188.8</ele>
        <time>2020-05-08T17:36:25Z</time>
      </trkpt>
      <trkpt lat="48.78598" lon="-0.57921">
        <ele>189.8</ele>
        <time>2020-05-08T17:36:28Z</time>
      </trkpt>
      <trkpt lat="48.78594" lon="-0.57926">
        <ele>190.4</ele>
        <time>2020-05-08T17:36:29Z</time>
      </trkpt>
      <trkpt lat="48.78591" lon="-0.57932">
        <ele>190.8</ele>
        <time>2020-05-08T17:36:30Z</time>
      </trkpt>
      <trkpt lat="48.78587" lon="-0.57937">
        <ele>191.2</ele>
        <time>2020-05-08T17:36:31Z</time>
      </trkpt>
      <trkpt lat="48.78569" lon="-0.57956">
        <ele>192.2</ele>
        <time>2020-05-08T17:36:35Z</time>
      </trkpt>
      <trkpt lat="48.78565" lon="-0.5796">
        <ele>192.4</ele>
        <time>2020-05-08T17:36:36Z</time>
      </trkpt>
      <trkpt lat="48.78553" lon="-0.5797">
        <ele>193.4</ele>
        <time>2020-05-08T17:36:39Z</time>
      </trkpt>
      <trkpt lat="48.78543" lon="-0.57978">
        <ele>194.4</ele>
        <time>2020-05-08T17:36:42Z</time>
      </trkpt>
      <trkpt lat="48.78529" lon="-0.57989">
        <ele>195.6</ele>
        <time>2020-05-08T17:36:46Z</time>
      </trkpt>
      <trkpt lat="48.78522" lon="-0.57994">
        <ele>196</ele>
        <time>2020-05-08T17:36:48Z</time>
      </trkpt>
      <trkpt lat="48.78511" lon="-0.58004">
        <ele>196.6</ele>
        <time>2020-05-08T17:36:51Z</time>
      </trkpt>
      <trkpt lat="48.78496" lon="-0.58023">
        <ele>197.6</ele>
        <time>2020-05-08T17:36:56Z</time>
      </trkpt>
      <trkpt lat="48.78494" lon="-0.58027">
        <ele>197.8</ele>
        <time>2020-05-08T17:36:57Z</time>
      </trkpt>
      <trkpt lat="48.78476" lon="-0.58047">
        <ele>198.2</ele>
        <time>2020-05-08T17:37:04Z</time>
      </trkpt>
      <trkpt lat="48.78461" lon="-0.58067">
        <ele>198.2</ele>
        <time>2020-05-08T17:37:10Z</time>
      </trkpt>
      <trkpt lat="48.78444" lon="-0.58085">
        <ele>198.8</ele>
        <time>2020-05-08T17:37:16Z</time>
      </trkpt>
      <trkpt lat="48.78441" lon="-0.58089">
        <ele>198.8</ele>
        <time>2020-05-08T17:37:17Z</time>
      </trkpt>
      <trkpt lat="48.78424" lon="-0.58109">
        <ele>199.2</ele>
        <time>2020-05-08T17:37:24Z</time>
      </trkpt>
      <trkpt lat="48.78407" lon="-0.58125">
        <ele>199.6</ele>
        <time>2020-05-08T17:37:31Z</time>
      </trkpt>
      <trkpt lat="48.78396" lon="-0.58132">
        <ele>199.4</ele>
        <time>2020-05-08T17:37:37Z</time>
      </trkpt>
      <trkpt lat="48.78385" lon="-0.58141">
        <ele>198.8</ele>
        <time>2020-05-08T17:37:43Z</time>
      </trkpt>
      <trkpt lat="48.78381" lon="-0.58144">
        <ele>198.8</ele>
        <time>2020-05-08T17:37:44Z</time>
      </trkpt>
      <trkpt lat="48.78367" lon="-0.58156">
        <ele>198.4</ele>
        <time>2020-05-08T17:37:48Z</time>
      </trkpt>
      <trkpt lat="48.78363" lon="-0.58159">
        <ele>198.2</ele>
        <time>2020-05-08T17:37:49Z</time>
      </trkpt>
      <trkpt lat="48.78346" lon="-0.58173">
        <ele>198</ele>
        <time>2020-05-08T17:37:54Z</time>
      </trkpt>
      <trkpt lat="48.78336" lon="-0.58181">
        <ele>197.8</ele>
        <time>2020-05-08T17:37:57Z</time>
      </trkpt>
      <trkpt lat="48.78323" lon="-0.58192">
        <ele>197.4</ele>
        <time>2020-05-08T17:38:01Z</time>
      </trkpt>
      <trkpt lat="48.78302" lon="-0.58215">
        <ele>196.8</ele>
        <time>2020-05-08T17:38:08Z</time>
      </trkpt>
      <trkpt lat="48.78296" lon="-0.58227">
        <ele>196.8</ele>
        <time>2020-05-08T17:38:11Z</time>
      </trkpt>
      <trkpt lat="48.78293" lon="-0.58228">
        <ele>196.8</ele>
        <time>2020-05-08T17:38:12Z</time>
      </trkpt>
      <trkpt lat="48.78286" lon="-0.5823">
        <ele>196.6</ele>
        <time>2020-05-08T17:38:14Z</time>
      </trkpt>
      <trkpt lat="48.78283" lon="-0.58231">
        <ele>196.6</ele>
        <time>2020-05-08T17:38:15Z</time>
      </trkpt>
      <trkpt lat="48.7827" lon="-0.58234">
        <ele>196.4</ele>
        <time>2020-05-08T17:38:18Z</time>
      </trkpt>
      <trkpt lat="48.78241" lon="-0.5824">
        <ele>195.6</ele>
        <time>2020-05-08T17:38:23Z</time>
      </trkpt>
      <trkpt lat="48.78205" lon="-0.58249">
        <ele>194.2</ele>
        <time>2020-05-08T17:38:28Z</time>
      </trkpt>
      <trkpt lat="48.78198" lon="-0.58251">
        <ele>194</ele>
        <time>2020-05-08T17:38:29Z</time>
      </trkpt>
      <trkpt lat="48.78173" lon="-0.58257">
        <ele>193.2</ele>
        <time>2020-05-08T17:38:32Z</time>
      </trkpt>
      <trkpt lat="48.78154" lon="-0.58261">
        <ele>192.6</ele>
        <time>2020-05-08T17:38:34Z</time>
      </trkpt>
      <trkpt lat="48.78134" lon="-0.58265">
        <ele>192</ele>
        <time>2020-05-08T17:38:36Z</time>
      </trkpt>
      <trkpt lat="48.78104" lon="-0.58272">
        <ele>191</ele>
        <time>2020-05-08T17:38:39Z</time>
      </trkpt>
      <trkpt lat="48.78093" lon="-0.58275">
        <ele>190.8</ele>
        <time>2020-05-08T17:38:40Z</time>
      </trkpt>
      <trkpt lat="48.78061" lon="-0.58286">
        <ele>189.6</ele>
        <time>2020-05-08T17:38:43Z</time>
      </trkpt>
      <trkpt lat="48.78031" lon="-0.58294">
        <ele>188.6</ele>
        <time>2020-05-08T17:38:46Z</time>
      </trkpt>
      <trkpt lat="48.78021" lon="-0.58294">
        <ele>188.2</ele>
        <time>2020-05-08T17:38:47Z</time>
      </trkpt>
      <trkpt lat="48.78002" lon="-0.58285">
        <ele>187.4</ele>
        <time>2020-05-08T17:38:49Z</time>
      </trkpt>
      <trkpt lat="48.7798" lon="-0.58254">
        <ele>186</ele>
        <time>2020-05-08T17:38:52Z</time>
      </trkpt>
      <trkpt lat="48.77975" lon="-0.58242">
        <ele>185.6</ele>
        <time>2020-05-08T17:38:53Z</time>
      </trkpt>
      <trkpt lat="48.77965" lon="-0.58215">
        <ele>184.8</ele>
        <time>2020-05-08T17:38:55Z</time>
      </trkpt>
      <trkpt lat="48.77947" lon="-0.58177">
        <ele>183.6</ele>
        <time>2020-05-08T17:38:58Z</time>
      </trkpt>
      <trkpt lat="48.77925" lon="-0.58148">
        <ele>182.4</ele>
        <time>2020-05-08T17:39:01Z</time>
      </trkpt>
      <trkpt lat="48.77917" lon="-0.58141">
        <ele>182.2</ele>
        <time>2020-05-08T17:39:02Z</time>
      </trkpt>
      <trkpt lat="48.77888" lon="-0.58126">
        <ele>181.2</ele>
        <time>2020-05-08T17:39:05Z</time>
      </trkpt>
      <trkpt lat="48.77878" lon="-0.58123">
        <ele>180.8</ele>
        <time>2020-05-08T17:39:06Z</time>
      </trkpt>
      <trkpt lat="48.77856" lon="-0.58119">
        <ele>179.8</ele>
        <time>2020-05-08T17:39:08Z</time>
      </trkpt>
      <trkpt lat="48.77845" lon="-0.58119">
        <ele>179.4</ele>
        <time>2020-05-08T17:39:09Z</time>
      </trkpt>
      <trkpt lat="48.77835" lon="-0.58121">
        <ele>179</ele>
        <time>2020-05-08T17:39:10Z</time>
      </trkpt>
      <trkpt lat="48.77825" lon="-0.58124">
        <ele>178.6</ele>
        <time>2020-05-08T17:39:11Z</time>
      </trkpt>
      <trkpt lat="48.77797" lon="-0.58138">
        <ele>177.8</ele>
        <time>2020-05-08T17:39:14Z</time>
      </trkpt>
      <trkpt lat="48.77781" lon="-0.58151">
        <ele>177.6</ele>
        <time>2020-05-08T17:39:16Z</time>
      </trkpt>
      <trkpt lat="48.77767" lon="-0.58166">
        <ele>177.6</ele>
        <time>2020-05-08T17:39:18Z</time>
      </trkpt>
      <trkpt lat="48.77744" lon="-0.58194">
        <ele>177.8</ele>
        <time>2020-05-08T17:39:22Z</time>
      </trkpt>
      <trkpt lat="48.77738" lon="-0.58199">
        <ele>178</ele>
        <time>2020-05-08T17:39:23Z</time>
      </trkpt>
      <trkpt lat="48.77724" lon="-0.5821">
        <ele>178.8</ele>
        <time>2020-05-08T17:39:26Z</time>
      </trkpt>
      <trkpt lat="48.77711" lon="-0.58216">
        <ele>179.8</ele>
        <time>2020-05-08T17:39:29Z</time>
      </trkpt>
      <trkpt lat="48.77704" lon="-0.5822">
        <ele>180.4</ele>
        <time>2020-05-08T17:39:31Z</time>
      </trkpt>
      <trkpt lat="48.77697" lon="-0.58222">
        <ele>181.2</ele>
        <time>2020-05-08T17:39:33Z</time>
      </trkpt>
      <trkpt lat="48.77687" lon="-0.58224">
        <ele>182.4</ele>
        <time>2020-05-08T17:39:36Z</time>
      </trkpt>
      <trkpt lat="48.77684" lon="-0.58224">
        <ele>182.8</ele>
        <time>2020-05-08T17:39:37Z</time>
      </trkpt>
      <trkpt lat="48.77677" lon="-0.58224">
        <ele>183.6</ele>
        <time>2020-05-08T17:39:39Z</time>
      </trkpt>
      <trkpt lat="48.77668" lon="-0.58223">
        <ele>184.6</ele>
        <time>2020-05-08T17:39:42Z</time>
      </trkpt>
      <trkpt lat="48.77659" lon="-0.58221">
        <ele>186</ele>
        <time>2020-05-08T17:39:45Z</time>
      </trkpt>
      <trkpt lat="48.77649" lon="-0.58217">
        <ele>187</ele>
        <time>2020-05-08T17:39:48Z</time>
      </trkpt>
      <trkpt lat="48.77641" lon="-0.58214">
        <ele>188.2</ele>
        <time>2020-05-08T17:39:51Z</time>
      </trkpt>
      <trkpt lat="48.77639" lon="-0.58212">
        <ele>188.6</ele>
        <time>2020-05-08T17:39:52Z</time>
      </trkpt>
      <trkpt lat="48.77634" lon="-0.58209">
        <ele>189.4</ele>
        <time>2020-05-08T17:39:54Z</time>
      </trkpt>
      <trkpt lat="48.77628" lon="-0.58204">
        <ele>190.4</ele>
        <time>2020-05-08T17:39:56Z</time>
      </trkpt>
      <trkpt lat="48.77622" lon="-0.58201">
        <ele>191.6</ele>
        <time>2020-05-08T17:39:58Z</time>
      </trkpt>
      <trkpt lat="48.77619" lon="-0.58199">
        <ele>192.2</ele>
        <time>2020-05-08T17:39:59Z</time>
      </trkpt>
      <trkpt lat="48.77616" lon="-0.58197">
        <ele>192.8</ele>
        <time>2020-05-08T17:40:00Z</time>
      </trkpt>
      <trkpt lat="48.77611" lon="-0.58192">
        <ele>194</ele>
        <time>2020-05-08T17:40:02Z</time>
      </trkpt>
      <trkpt lat="48.77603" lon="-0.58185">
        <ele>195</ele>
        <time>2020-05-08T17:40:05Z</time>
      </trkpt>
      <trkpt lat="48.77601" lon="-0.58183">
        <ele>195.4</ele>
        <time>2020-05-08T17:40:06Z</time>
      </trkpt>
      <trkpt lat="48.77596" lon="-0.58178">
        <ele>196.2</ele>
        <time>2020-05-08T17:40:08Z</time>
      </trkpt>
      <trkpt lat="48.77587" lon="-0.58171">
        <ele>197.4</ele>
        <time>2020-05-08T17:40:11Z</time>
      </trkpt>
      <trkpt lat="48.77581" lon="-0.58165">
        <ele>198.2</ele>
        <time>2020-05-08T17:40:13Z</time>
      </trkpt>
      <trkpt lat="48.77578" lon="-0.58163">
        <ele>198.6</ele>
        <time>2020-05-08T17:40:14Z</time>
      </trkpt>
      <trkpt lat="48.7757" lon="-0.58156">
        <ele>199.8</ele>
        <time>2020-05-08T17:40:17Z</time>
      </trkpt>
      <trkpt lat="48.77562" lon="-0.5815">
        <ele>201</ele>
        <time>2020-05-08T17:40:20Z</time>
      </trkpt>
      <trkpt lat="48.77557" lon="-0.58145">
        <ele>201.8</ele>
        <time>2020-05-08T17:40:22Z</time>
      </trkpt>
      <trkpt lat="48.77554" lon="-0.58143">
        <ele>202.2</ele>
        <time>2020-05-08T17:40:23Z</time>
      </trkpt>
      <trkpt lat="48.77534" lon="-0.58127">
        <ele>203.2</ele>
        <time>2020-05-08T17:40:30Z</time>
      </trkpt>
      <trkpt lat="48.77518" lon="-0.58115">
        <ele>204.2</ele>
        <time>2020-05-08T17:40:36Z</time>
      </trkpt>
      <trkpt lat="48.775" lon="-0.581">
        <ele>205.2</ele>
        <time>2020-05-08T17:40:43Z</time>
      </trkpt>
      <trkpt lat="48.77498" lon="-0.58098">
        <ele>205.2</ele>
        <time>2020-05-08T17:40:44Z</time>
      </trkpt>
      <trkpt lat="48.77486" lon="-0.58089">
        <ele>205.4</ele>
        <time>2020-05-08T17:40:49Z</time>
      </trkpt>
      <trkpt lat="48.77462" lon="-0.58071">
        <ele>205.8</ele>
        <time>2020-05-08T17:40:57Z</time>
      </trkpt>
      <trkpt lat="48.77436" lon="-0.58049">
        <ele>205.6</ele>
        <time>2020-05-08T17:41:06Z</time>
      </trkpt>
      <trkpt lat="48.77412" lon="-0.58028">
        <ele>204.8</ele>
        <time>2020-05-08T17:41:14Z</time>
      </trkpt>
      <trkpt lat="48.77407" lon="-0.58025">
        <ele>204.6</ele>
        <time>2020-05-08T17:41:16Z</time>
      </trkpt>
      <trkpt lat="48.77402" lon="-0.58031">
        <ele>204.4</ele>
        <time>2020-05-08T17:41:18Z</time>
      </trkpt>
      <trkpt lat="48.774" lon="-0.58035">
        <ele>204.2</ele>
        <time>2020-05-08T17:41:19Z</time>
      </trkpt>
      <trkpt lat="48.77396" lon="-0.58045">
        <ele>203.8</ele>
        <time>2020-05-08T17:41:21Z</time>
      </trkpt>
      <trkpt lat="48.77392" lon="-0.58057">
        <ele>203.4</ele>
        <time>2020-05-08T17:41:23Z</time>
      </trkpt>
      <trkpt lat="48.77389" lon="-0.58063">
        <ele>203.2</ele>
        <time>2020-05-08T17:41:24Z</time>
      </trkpt>
      <trkpt lat="48.77382" lon="-0.58077">
        <ele>202.6</ele>
        <time>2020-05-08T17:41:27Z</time>
      </trkpt>
      <trkpt lat="48.77371" lon="-0.58079">
        <ele>202</ele>
        <time>2020-05-08T17:41:30Z</time>
      </trkpt>
      <trkpt lat="48.77366" lon="-0.58079">
        <ele>201.6</ele>
        <time>2020-05-08T17:41:31Z</time>
      </trkpt>
      <trkpt lat="48.7736" lon="-0.58078">
        <ele>201.4</ele>
        <time>2020-05-08T17:41:32Z</time>
      </trkpt>
      <trkpt lat="48.77355" lon="-0.58078">
        <ele>201</ele>
        <time>2020-05-08T17:41:33Z</time>
      </trkpt>
      <trkpt lat="48.77336" lon="-0.58074">
        <ele>200</ele>
        <time>2020-05-08T17:41:36Z</time>
      </trkpt>
      <trkpt lat="48.77329" lon="-0.58072">
        <ele>199.6</ele>
        <time>2020-05-08T17:41:37Z</time>
      </trkpt>
      <trkpt lat="48.77306" lon="-0.58068">
        <ele>198.6</ele>
        <time>2020-05-08T17:41:40Z</time>
      </trkpt>
      <trkpt lat="48.77298" lon="-0.58067">
        <ele>198.2</ele>
        <time>2020-05-08T17:41:41Z</time>
      </trkpt>
      <trkpt lat="48.77292" lon="-0.58066">
        <ele>198</ele>
        <time>2020-05-08T17:41:42Z</time>
      </trkpt>
      <trkpt lat="48.77282" lon="-0.58062">
        <ele>197.6</ele>
        <time>2020-05-08T17:41:44Z</time>
      </trkpt>
      <trkpt lat="48.77279" lon="-0.58059">
        <ele>197.4</ele>
        <time>2020-05-08T17:41:45Z</time>
      </trkpt>
      <trkpt lat="48.77272" lon="-0.58053">
        <ele>197.4</ele>
        <time>2020-05-08T17:41:48Z</time>
      </trkpt>
      <trkpt lat="48.77259" lon="-0.58045">
        <ele>197.6</ele>
        <time>2020-05-08T17:41:53Z</time>
      </trkpt>
      <trkpt lat="48.77256" lon="-0.58043">
        <ele>197.8</ele>
        <time>2020-05-08T17:41:54Z</time>
      </trkpt>
      <trkpt lat="48.77239" lon="-0.58039">
        <ele>198.4</ele>
        <time>2020-05-08T17:41:59Z</time>
      </trkpt>
      <trkpt lat="48.77236" lon="-0.58039">
        <ele>198.6</ele>
        <time>2020-05-08T17:42:00Z</time>
      </trkpt>
      <trkpt lat="48.77217" lon="-0.58044">
        <ele>199.4</ele>
        <time>2020-05-08T17:42:05Z</time>
      </trkpt>
      <trkpt lat="48.77213" lon="-0.58047">
        <ele>199.6</ele>
        <time>2020-05-08T17:42:06Z</time>
      </trkpt>
      <trkpt lat="48.77199" lon="-0.58056">
        <ele>200.8</ele>
        <time>2020-05-08T17:42:11Z</time>
      </trkpt>
      <trkpt lat="48.77182" lon="-0.58074">
        <ele>202</ele>
        <time>2020-05-08T17:42:18Z</time>
      </trkpt>
      <trkpt lat="48.77168" lon="-0.58086">
        <ele>202.4</ele>
        <time>2020-05-08T17:42:24Z</time>
      </trkpt>
      <trkpt lat="48.77151" lon="-0.58096">
        <ele>202.6</ele>
        <time>2020-05-08T17:42:30Z</time>
      </trkpt>
      <trkpt lat="48.77141" lon="-0.58089">
        <ele>202.8</ele>
        <time>2020-05-08T17:42:34Z</time>
      </trkpt>
      <trkpt lat="48.7714" lon="-0.58085">
        <ele>202.8</ele>
        <time>2020-05-08T17:42:35Z</time>
      </trkpt>
      <trkpt lat="48.77139" lon="-0.58069">
        <ele>202.2</ele>
        <time>2020-05-08T17:42:39Z</time>
      </trkpt>
      <trkpt lat="48.77139" lon="-0.58065">
        <ele>202.2</ele>
        <time>2020-05-08T17:42:40Z</time>
      </trkpt>
      <trkpt lat="48.77138" lon="-0.58041">
        <ele>202</ele>
        <time>2020-05-08T17:42:47Z</time>
      </trkpt>
      <trkpt lat="48.7713" lon="-0.58028">
        <ele>202.4</ele>
        <time>2020-05-08T17:42:52Z</time>
      </trkpt>
      <trkpt lat="48.77124" lon="-0.58023">
        <ele>202.4</ele>
        <time>2020-05-08T17:43:25Z</time>
      </trkpt>
      <trkpt lat="48.7712" lon="-0.58017">
        <ele>202.4</ele>
        <time>2020-05-08T17:43:27Z</time>
      </trkpt>
      <trkpt lat="48.77109" lon="-0.58">
        <ele>203</ele>
        <time>2020-05-08T17:43:32Z</time>
      </trkpt>
      <trkpt lat="48.77105" lon="-0.57991">
        <ele>203</ele>
        <time>2020-05-08T17:43:34Z</time>
      </trkpt>
      <trkpt lat="48.77101" lon="-0.57966">
        <ele>203.4</ele>
        <time>2020-05-08T17:43:39Z</time>
      </trkpt>
      <trkpt lat="48.77104" lon="-0.57962">
        <ele>203.6</ele>
        <time>2020-05-08T17:43:40Z</time>
      </trkpt>
      <trkpt lat="48.77109" lon="-0.57955">
        <ele>203.6</ele>
        <time>2020-05-08T17:43:42Z</time>
      </trkpt>
      <trkpt lat="48.77119" lon="-0.57943">
        <ele>203.6</ele>
        <time>2020-05-08T17:43:47Z</time>
      </trkpt>
      <trkpt lat="48.77122" lon="-0.57938">
        <ele>204.2</ele>
        <time>2020-05-08T17:43:49Z</time>
      </trkpt>
      <trkpt lat="48.77123" lon="-0.57937">
        <ele>204.4</ele>
        <time>2020-05-08T17:43:50Z</time>
      </trkpt>
      <trkpt lat="48.77124" lon="-0.57938">
        <ele>204.8</ele>
        <time>2020-05-08T17:43:52Z</time>
      </trkpt>
      <trkpt lat="48.77121" lon="-0.57942">
        <ele>205.2</ele>
        <time>2020-05-08T17:43:55Z</time>
      </trkpt>
      <trkpt lat="48.7712" lon="-0.57943">
        <ele>205.2</ele>
        <time>2020-05-08T17:43:56Z</time>
      </trkpt>
      <trkpt lat="48.77113" lon="-0.57952">
        <ele>204.4</ele>
        <time>2020-05-08T17:47:33Z</time>
      </trkpt>
      <trkpt lat="48.77109" lon="-0.57955">
        <ele>204</ele>
        <time>2020-05-08T17:47:35Z</time>
      </trkpt>
      <trkpt lat="48.771" lon="-0.57968">
        <ele>203.4</ele>
        <time>2020-05-08T17:47:38Z</time>
      </trkpt>
      <trkpt lat="48.77101" lon="-0.5798">
        <ele>202.8</ele>
        <time>2020-05-08T17:47:40Z</time>
      </trkpt>
      <trkpt lat="48.77103" lon="-0.57986">
        <ele>202.2</ele>
        <time>2020-05-08T17:47:41Z</time>
      </trkpt>
      <trkpt lat="48.77106" lon="-0.57991">
        <ele>201.6</ele>
        <time>2020-05-08T17:47:42Z</time>
      </trkpt>
      <trkpt lat="48.77109" lon="-0.57996">
        <ele>200.8</ele>
        <time>2020-05-08T17:47:43Z</time>
      </trkpt>
      <trkpt lat="48.77111" lon="-0.58001">
        <ele>200.2</ele>
        <time>2020-05-08T17:47:44Z</time>
      </trkpt>
      <trkpt lat="48.77116" lon="-0.58011">
        <ele>199.2</ele>
        <time>2020-05-08T17:47:46Z</time>
      </trkpt>
      <trkpt lat="48.77119" lon="-0.58015">
        <ele>198.8</ele>
        <time>2020-05-08T17:47:47Z</time>
      </trkpt>
      <trkpt lat="48.77126" lon="-0.5802">
        <ele>198.2</ele>
        <time>2020-05-08T17:47:49Z</time>
      </trkpt>
      <trkpt lat="48.77129" lon="-0.58019">
        <ele>197.8</ele>
        <time>2020-05-08T17:47:50Z</time>
      </trkpt>
      <trkpt lat="48.77135" lon="-0.58016">
        <ele>197.2</ele>
        <time>2020-05-08T17:47:53Z</time>
      </trkpt>
      <trkpt lat="48.77135" lon="-0.58018">
        <ele>196</ele>
        <time>2020-05-08T17:49:04Z</time>
      </trkpt>
      <trkpt lat="48.77129" lon="-0.58019">
        <ele>196.8</ele>
        <time>2020-05-08T17:49:06Z</time>
      </trkpt>
      <trkpt lat="48.77125" lon="-0.58017">
        <ele>197.2</ele>
        <time>2020-05-08T17:49:07Z</time>
      </trkpt>
      <trkpt lat="48.77117" lon="-0.58007">
        <ele>198.4</ele>
        <time>2020-05-08T17:49:09Z</time>
      </trkpt>
      <trkpt lat="48.77105" lon="-0.5799">
        <ele>199.4</ele>
        <time>2020-05-08T17:49:12Z</time>
      </trkpt>
      <trkpt lat="48.771" lon="-0.57979">
        <ele>199.6</ele>
        <time>2020-05-08T17:49:14Z</time>
      </trkpt>
      <trkpt lat="48.77104" lon="-0.57964">
        <ele>199.8</ele>
        <time>2020-05-08T17:49:17Z</time>
      </trkpt>
      <trkpt lat="48.77109" lon="-0.57958">
        <ele>199.6</ele>
        <time>2020-05-08T17:49:19Z</time>
      </trkpt>
      <trkpt lat="48.77112" lon="-0.57951">
        <ele>199.8</ele>
        <time>2020-05-08T17:49:21Z</time>
      </trkpt>
      <trkpt lat="48.77115" lon="-0.57946">
        <ele>199.8</ele>
        <time>2020-05-08T17:49:23Z</time>
      </trkpt>
      <trkpt lat="48.77116" lon="-0.5795">
        <ele>199.8</ele>
        <time>2020-05-08T17:49:25Z</time>
      </trkpt>
      <trkpt lat="48.77116" lon="-0.57947">
        <ele>202</ele>
        <time>2020-05-08T18:18:53Z</time>
      </trkpt>
      <trkpt lat="48.77115" lon="-0.57946">
        <ele>202</ele>
        <time>2020-05-08T18:18:54Z</time>
      </trkpt>
      <trkpt lat="48.7711" lon="-0.57955">
        <ele>201.8</ele>
        <time>2020-05-08T18:18:58Z</time>
      </trkpt>
      <trkpt lat="48.77109" lon="-0.57958">
        <ele>201.8</ele>
        <time>2020-05-08T18:18:59Z</time>
      </trkpt>
      <trkpt lat="48.771" lon="-0.57977">
        <ele>202</ele>
        <time>2020-05-08T18:19:03Z</time>
      </trkpt>
      <trkpt lat="48.77101" lon="-0.57983">
        <ele>202</ele>
        <time>2020-05-08T18:19:04Z</time>
      </trkpt>
      <trkpt lat="48.77105" lon="-0.57992">
        <ele>202</ele>
        <time>2020-05-08T18:19:06Z</time>
      </trkpt>
      <trkpt lat="48.77126" lon="-0.58022">
        <ele>201.4</ele>
        <time>2020-05-08T18:19:14Z</time>
      </trkpt>
      <trkpt lat="48.77128" lon="-0.58021">
        <ele>201.4</ele>
        <time>2020-05-08T18:19:15Z</time>
      </trkpt>
      <trkpt lat="48.77132" lon="-0.58017">
        <ele>201.4</ele>
        <time>2020-05-08T18:19:17Z</time>
      </trkpt>
      <trkpt lat="48.77133" lon="-0.58016">
        <ele>201.6</ele>
        <time>2020-05-08T18:19:19Z</time>
      </trkpt>
    </trkseg>
  </trk>
</gpx>